Home > Products > Valid Products > OSO

000
SXUS55 KMSO 312113
OSOMSO
MONTANA AWOS SUMMARY
NATIONAL WEATHER SERVICE MISSOULA MT
213 PM MST SAT JAN 31 2015

Montana AWOS Reports

SCOBEY      |K9S2 312055Z AUTO 04012G17KT 1 1/2SM M13/M18 A3027 RMK AO1 T11271182
MALTA       |KM75 312055Z AUTO 36013G19KT 3SM M10/M14 A3025 RMK AO1 T10991143
TWIN BRIDGES|K7S1 312055Z AUTO 35013KT 40SM 06/M10 A2999 RMK AO1 T00561099






000
SXUS55 KMSO 312103
OSOMSO
MONTANA AWOS SUMMARY
NATIONAL WEATHER SERVICE MISSOULA MT
203 PM MST SAT JAN 31 2015

Montana AWOS Reports

LAUREL      |K6S8 312055Z AUTO 01007KT 2 1/2SM M01/M07 A3004 RMK AO1 T10101071
ROUNDUP     |KRPX 312055Z AUTO 34018G24KT 40SM M03/M09 A3000 RMK AO1 T10321088






000
SXUS55 KMSO 312043
OSOMSO
MONTANA AWOS SUMMARY
NATIONAL WEATHER SERVICE MISSOULA MT
143 PM MST SAT JAN 31 2015

Montana AWOS Reports

ROUNDUP     |KRPX 312035Z AUTO 17017G25KT 080V260 40SM M03/M09 A2999 RMK AO1 T10321088






000
SXUS55 KMSO 312023
OSOMSO
MONTANA AWOS SUMMARY
NATIONAL WEATHER SERVICE MISSOULA MT
122 PM MST SAT JAN 31 2015

Montana AWOS Reports

ROUNDUP     |KRPX 312015Z AUTO 34014G24KT 40SM M03/M08 A2998 RMK AO1 T10271077
LAUREL      |K6S8 312015Z AUTO 03007KT 25SM M01/M08 A3003 RMK AO1 T10051077






000
SXUS55 KMSO 312013
OSOMSO
MONTANA AWOS SUMMARY
NATIONAL WEATHER SERVICE MISSOULA MT
113 PM MST SAT JAN 31 2015

Montana AWOS Reports

MALTA       |KM75 311955Z AUTO 01012G21KT 1 1/2SM M11/M14 A3024 RMK AO1 T11051143






000
SXUS55 KMSO 312004
OSOMSO
MONTANA AWOS SUMMARY
NATIONAL WEATHER SERVICE MISSOULA MT
103 PM MST SAT JAN 31 2015

Montana AWOS Reports

LAUREL      |K6S8 311955Z AUTO 03009G13KT 25SM 00/M07 A3002 RMK AO1 T00001071
ROUNDUP     |KRPX 311955Z AUTO 34018G22KT 40SM M03/M07 A2998 RMK AO1 T10271071
TWIN BRIDGES|K7S1 311955Z AUTO 08004KT 40SM 03/M09 A3001 RMK AO1 T00331088
SCOBEY      |K9S2 311955Z AUTO 05014KT 1 1/2SM M13/M18 A3026 RMK AO1 T11271182






000
SXUS55 KMSO 311943
OSOMSO
MONTANA AWOS SUMMARY
NATIONAL WEATHER SERVICE MISSOULA MT
1243 PM MST SAT JAN 31 2015

Montana AWOS Reports

LAUREL      |K6S8 311935Z AUTO 01011KT 25SM 00/M08 A3001 RMK AO1 T00001077
ROUNDUP     |KRPX 311935Z AUTO 17010G18KT 080V260 25SM M03/M07 A2997 RMK AO1 T10271071






000
SXUS55 KMSO 311923
OSOMSO
MONTANA AWOS SUMMARY
NATIONAL WEATHER SERVICE MISSOULA MT
1223 PM MST SAT JAN 31 2015

Montana AWOS Reports

LAUREL      |K6S8 311915Z AUTO 04011KT 25SM 01/M07 A3001 RMK AO1 T00061071
ROUNDUP     |KRPX 311915Z AUTO 35008KT 40SM M03/M07 A2997 RMK AO1 T10271066






000
SXUS55 KMSO 311903
OSOMSO
MONTANA AWOS SUMMARY
NATIONAL WEATHER SERVICE MISSOULA MT
1203 PM MST SAT JAN 31 2015

Montana AWOS Reports

LAUREL      |K6S8 311855Z AUTO 03010G16KT 40SM 00/M08 A3000 RMK AO1 T00001077
ROUNDUP     |KRPX 311855Z AUTO 34008KT 25SM M03/M06 A2997 RMK AO1 T10271060
SCOBEY      |K9S2 311855Z AUTO 04016G21KT 2SM M13/M18 A3025 RMK AO1 T11271182
TWIN BRIDGES|K7S1 311855Z AUTO 00000KT 40SM 01/M08 A3003 RMK AO1 T00111077
MALTA       |KM75 311855Z AUTO 02012G18KT 1 3/4SM M09/M13 A3023 RMK AO1 T10931132






000
SXUS55 KMSO 311844
OSOMSO
MONTANA AWOS SUMMARY
NATIONAL WEATHER SERVICE MISSOULA MT
1143 AM MST SAT JAN 31 2015

Montana AWOS Reports

LAUREL      |K6S8 311835Z AUTO 02009G15KT 40SM 01/M08 A3000 RMK AO1 T00061077
ROUNDUP     |KRPX 311835Z AUTO 36007KT 10SM M03/M06 A2997 RMK AO1 T10271055






000
SXUS55 KMSO 311823
OSOMSO
MONTANA AWOS SUMMARY
NATIONAL WEATHER SERVICE MISSOULA MT
1123 AM MST SAT JAN 31 2015

Montana AWOS Reports

LAUREL      |K6S8 311815Z AUTO 02007KT 40SM 01/M08 A2999 RMK AO1 T00111077
ROUNDUP     |KRPX 311815Z AUTO 36010G14KT 25SM M03/M06 A2996 RMK AO1 T10271055






000
SXUS55 KMSO 311803
OSOMSO
MONTANA AWOS SUMMARY
NATIONAL WEATHER SERVICE MISSOULA MT
1103 AM MST SAT JAN 31 2015

Montana AWOS Reports

ROUNDUP     |KRPX 311755Z AUTO 36008KT 7SM M03/M06 A2996 RMK AO1 T10271055
SCOBEY      |K9S2 311755Z AUTO 05017G23KT 1SM M13/M17 A3023 RMK AO1 T11271171
LAUREL      |K6S8 311755Z AUTO 03009G13KT 40SM 02/M08 A2998 RMK AO1 T00171077
MALTA       |KM75 311755Z AUTO 03012G21KT 4SM M08/M12 A3020 RMK AO1 T10821121
TWIN BRIDGES|K7S1 311755Z AUTO 20005KT 40SM M02/M08 A3005 RMK AO1 T10161082






000
SXUS55 KMSO 311744
OSOMSO
MONTANA AWOS SUMMARY
NATIONAL WEATHER SERVICE MISSOULA MT
1043 AM MST SAT JAN 31 2015

Montana AWOS Reports

ROUNDUP     |KRPX 311735Z AUTO 02008KT 7SM M03/M06 A2995 RMK AO1 T10321060
LAUREL      |K6S8 311735Z AUTO 04004KT 40SM 02/M08 A2997 RMK AO1 T00221077






000
SXUS55 KMSO 311723
OSOMSO
MONTANA AWOS SUMMARY
NATIONAL WEATHER SERVICE MISSOULA MT
1023 AM MST SAT JAN 31 2015

Montana AWOS Reports

LAUREL      |K6S8 311715Z AUTO 00000KT 40SM 01/M07 A2996 RMK AO1 T00111066
ROUNDUP     |KRPX 311715Z AUTO 01006KT 10SM M03/M06 A2995 RMK AO1 T10321060






000
SXUS55 KMSO 311703
OSOMSO
MONTANA AWOS SUMMARY
NATIONAL WEATHER SERVICE MISSOULA MT
1003 AM MST SAT JAN 31 2015

Montana AWOS Reports

ROUNDUP     |KRPX 311655Z AUTO 01006KT 10SM M03/M06 A2994 RMK AO1 T10271055
LAUREL      |K6S8 311655Z AUTO 00000KT 40SM M01/M10 A2995 RMK AO1 T10051099
TWIN BRIDGES|K7S1 311655Z AUTO 11005KT 40SM M04/M09 A3004 RMK AO1 T10381093
MALTA       |KM75 311655Z AUTO 01018G22KT 1SM M08/M12 A3016 RMK AO1 T10821121
SCOBEY      |K9S2 311655Z AUTO 04017KT 1/2SM M12/M17 A3021 RMK AO1 T11211166






000
SXUS55 KMSO 311643
OSOMSO
MONTANA AWOS SUMMARY
NATIONAL WEATHER SERVICE MISSOULA MT
943 AM MST SAT JAN 31 2015

Montana AWOS Reports

ROUNDUP     |KRPX 311635Z AUTO 36006KT 25SM M03/M06 A2993 RMK AO1 T10271055
LAUREL      |K6S8 311635Z AUTO 00000KT 40SM M01/M11 A2995 RMK AO1 T10101110






000
SXUS55 KMSO 311623
OSOMSO
MONTANA AWOS SUMMARY
NATIONAL WEATHER SERVICE MISSOULA MT
922 AM MST SAT JAN 31 2015

Montana AWOS Reports

ROUNDUP     |KRPX 311615Z AUTO 35008KT 25SM M03/M07 A2992 RMK AO1 T10321066
LAUREL      |K6S8 311615Z AUTO 00000KT 40SM M02/M11 A2995 RMK AO1 T10161110






000
SXUS55 KMSO 311613
OSOMSO
MONTANA AWOS SUMMARY
NATIONAL WEATHER SERVICE MISSOULA MT
913 AM MST SAT JAN 31 2015

Montana AWOS Reports

MALTA       |KM75 311555Z AUTO 04010G14KT 1/2SM M05/M08 A3012 RMK AO1 T10491077






000
SXUS55 KMSO 311604
OSOMSO
MONTANA AWOS SUMMARY
NATIONAL WEATHER SERVICE MISSOULA MT
903 AM MST SAT JAN 31 2015

Montana AWOS Reports

LAUREL      |K6S8 311555Z AUTO 00000KT 40SM M02/M11 A2994 RMK AO1 T10211110
ROUNDUP     |KRPX 311555Z AUTO 35011G15KT 40SM M03/M07 A2991 RMK AO1 T10321066
SCOBEY      |K9S2 311555Z AUTO 03016G20KT 1SM M12/M16 A3018 RMK AO1 T11161160
TWIN BRIDGES|K7S1 311555Z AUTO 00000KT 40SM M07/M11 A3004 RMK AO1 T10711110






000
SXUS55 KMSO 311543
OSOMSO
MONTANA AWOS SUMMARY
NATIONAL WEATHER SERVICE MISSOULA MT
843 AM MST SAT JAN 31 2015

Montana AWOS Reports

LAUREL      |K6S8 311535Z AUTO 00000KT 40SM M03/M12 A2994 RMK AO1 T10271116
ROUNDUP     |KRPX 311535Z AUTO 35009G15KT 40SM M03/M07 A2991 RMK AO1 T10271066






000
SXUS55 KMSO 311523
OSOMSO
MONTANA AWOS SUMMARY
NATIONAL WEATHER SERVICE MISSOULA MT
823 AM MST SAT JAN 31 2015

Montana AWOS Reports

ROUNDUP     |KRPX 311515Z AUTO 35005KT 40SM M02/M07 A2990 RMK AO1 T10211066
LAUREL      |K6S8 311515Z AUTO 00000KT 40SM M03/M12 A2993 RMK AO1 T10271116






000
SXUS55 KMSO 311503
OSOMSO
MONTANA AWOS SUMMARY
NATIONAL WEATHER SERVICE MISSOULA MT
803 AM MST SAT JAN 31 2015

Montana AWOS Reports

LAUREL      |K6S8 311455Z AUTO 24005KT 40SM M04/M12 A2994 RMK AO1 T10381121
ROUNDUP     |KRPX 311455Z AUTO 01004KT 40SM M02/M08 A2989 RMK AO1 T10211077
SCOBEY      |K9S2 311455Z AUTO 04013G20KT 1SM M11/M14 A3017 RMK AO1 T11051143
MALTA       |KM75 311455Z AUTO 05010G15KT 3SM M05/M08 A3009 RMK AO1 T10491077
TWIN BRIDGES|K7S1 311455Z AUTO 18006KT 40SM M08/M13 A3003 RMK AO1 T10821127






000
SXUS55 KMSO 311444
OSOMSO
MONTANA AWOS SUMMARY
NATIONAL WEATHER SERVICE MISSOULA MT
743 AM MST SAT JAN 31 2015

Montana AWOS Reports

LAUREL      |K6S8 311435Z AUTO 23004KT 40SM M04/M12 A2993 RMK AO1 T10381121
ROUNDUP     |KRPX 311435Z AUTO 00000KT 40SM M04/M09 A2988 RMK AO1 T10381088






000
SXUS55 KMSO 311423
OSOMSO
MONTANA AWOS SUMMARY
NATIONAL WEATHER SERVICE MISSOULA MT
723 AM MST SAT JAN 31 2015

Montana AWOS Reports

LAUREL      |K6S8 311415Z AUTO 22004KT 40SM M03/M12 A2993 RMK AO1 T10321116
ROUNDUP     |KRPX 311415Z AUTO 00000KT 40SM M04/M09 A2988 RMK AO1 T10431093






000
SXUS55 KMSO 311413
OSOMSO
MONTANA AWOS SUMMARY
NATIONAL WEATHER SERVICE MISSOULA MT
713 AM MST SAT JAN 31 2015

Montana AWOS Reports

MALTA       |KM75 311355Z AUTO 05009G17KT 7SM M04/M07 A3007 RMK AO1 T10431071






000
SXUS55 KMSO 311404
OSOMSO
MONTANA AWOS SUMMARY
NATIONAL WEATHER SERVICE MISSOULA MT
703 AM MST SAT JAN 31 2015

Montana AWOS Reports

LAUREL      |K6S8 311355Z AUTO 22004KT 40SM M04/M12 A2993 RMK AO1 T10381121
ROUNDUP     |KRPX 311355Z AUTO 00000KT 40SM M04/M09 A2987 RMK AO1 T10381093
SCOBEY      |K9S2 311355Z AUTO 05014G20KT 5SM M09/M13 A3015 RMK AO1 T10931127
TWIN BRIDGES|K7S1 311355Z AUTO 00000KT 40SM M07/M12 A3003 RMK AO1 T10711116






000
SXUS55 KMSO 311343
OSOMSO
MONTANA AWOS SUMMARY
NATIONAL WEATHER SERVICE MISSOULA MT
643 AM MST SAT JAN 31 2015

Montana AWOS Reports

LAUREL      |K6S8 311335Z AUTO 00000KT 40SM M04/M12 A2993 RMK AO1 T10381121
ROUNDUP     |KRPX 311335Z AUTO 00000KT 40SM M04/M09 A2986 RMK AO1 T10381093






000
SXUS55 KMSO 311324
OSOMSO
MONTANA AWOS SUMMARY
NATIONAL WEATHER SERVICE MISSOULA MT
623 AM MST SAT JAN 31 2015

Montana AWOS Reports

LAUREL      |K6S8 311315Z AUTO 00000KT 40SM M04/M12 A2993 RMK AO1 T10431121
ROUNDUP     |KRPX 311315Z AUTO 00000KT 40SM M04/M09 A2985 RMK AO1 T10381093






000
SXUS55 KMSO 311313
OSOMSO
MONTANA AWOS SUMMARY
NATIONAL WEATHER SERVICE MISSOULA MT
613 AM MST SAT JAN 31 2015

Montana AWOS Reports

TWIN BRIDGES|K7S1 311255Z AUTO 09004KT 40SM M08/M12 A3003 RMK AO1 T10821121
MALTA       |KM75 311255Z AUTO 05012G19KT 7SM M04/M07 A3005 RMK AO1 T10431066






000
SXUS55 KMSO 311303
OSOMSO
MONTANA AWOS SUMMARY
NATIONAL WEATHER SERVICE MISSOULA MT
603 AM MST SAT JAN 31 2015

Montana AWOS Reports

ROUNDUP     |KRPX 311255Z AUTO 00000KT 40SM M03/M09 A2986 RMK AO1 T10321088
LAUREL      |K6S8 311255Z AUTO 22006KT 40SM M04/M12 A2992 RMK AO1 T10431116
SCOBEY      |K9S2 311255Z AUTO 04012KT 10SM M09/M12 A3014 RMK AO1 T10881116






000
SXUS55 KMSO 311244
OSOMSO
MONTANA AWOS SUMMARY
NATIONAL WEATHER SERVICE MISSOULA MT
543 AM MST SAT JAN 31 2015

Montana AWOS Reports

LAUREL      |K6S8 311235Z AUTO 00000KT 40SM M04/M12 A2992 RMK AO1 T10431121
ROUNDUP     |KRPX 311235Z AUTO 00000KT 40SM M03/M09 A2986 RMK AO1 T10321088






000
SXUS55 KMSO 311223
OSOMSO
MONTANA AWOS SUMMARY
NATIONAL WEATHER SERVICE MISSOULA MT
523 AM MST SAT JAN 31 2015

Montana AWOS Reports

LAUREL      |K6S8 311215Z AUTO 00000KT 40SM M04/M12 A2992 RMK AO1 T10381121
ROUNDUP     |KRPX 311215Z AUTO 00000KT 40SM M03/M09 A2986 RMK AO1 T10321088






000
SXUS55 KMSO 311214
OSOMSO
MONTANA AWOS SUMMARY
NATIONAL WEATHER SERVICE MISSOULA MT
513 AM MST SAT JAN 31 2015

Montana AWOS Reports

SCOBEY      |K9S2 311155Z AUTO 04008KT 5SM M08/M11 A3014 RMK AO1 T10771105
MALTA       |KM75 311155Z AUTO 05015G19KT 4SM M04/M06 A3003 RMK AO1 T10381060






000
SXUS55 KMSO 311203
OSOMSO
MONTANA AWOS SUMMARY
NATIONAL WEATHER SERVICE MISSOULA MT
503 AM MST SAT JAN 31 2015

Montana AWOS Reports

ROUNDUP     |KRPX 311155Z AUTO 00000KT 40SM M03/M09 A2986 RMK AO1 T10321088
LAUREL      |K6S8 311155Z AUTO 00000KT 40SM M03/M10 A2993 RMK AO1 T10271099






000
SXUS55 KMSO 311143
OSOMSO
MONTANA AWOS SUMMARY
NATIONAL WEATHER SERVICE MISSOULA MT
443 AM MST SAT JAN 31 2015

Montana AWOS Reports

ROUNDUP     |KRPX 311135Z AUTO 00000KT 40SM M03/M09 A2986 RMK AO1 T10321088
LAUREL      |K6S8 311135Z AUTO 23004KT 40SM M04/M09 A2993 RMK AO1 T10381093






000
SXUS55 KMSO 311123
OSOMSO
MONTANA AWOS SUMMARY
NATIONAL WEATHER SERVICE MISSOULA MT
422 AM MST SAT JAN 31 2015

Montana AWOS Reports

ROUNDUP     |KRPX 311115Z AUTO 00000KT 40SM M03/M09 A2986 RMK AO1 T10271088
LAUREL      |K6S8 311115Z AUTO 00000KT 40SM M03/M12 A2994 RMK AO1 T10321116






000
SXUS55 KMSO 311114
OSOMSO
MONTANA AWOS SUMMARY
NATIONAL WEATHER SERVICE MISSOULA MT
413 AM MST SAT JAN 31 2015

Montana AWOS Reports

MALTA       |KM75 310955Z AUTO 05009G15KT 10SM M02/M04 A3002 RMK AO1 T10161043
MALTA       |KM75 311055Z AUTO 04015G21KT 5SM M03/M06 A3001 RMK AO1 T10271055






000
SXUS55 KMSO 311104
OSOMSO
MONTANA AWOS SUMMARY
NATIONAL WEATHER SERVICE MISSOULA MT
403 AM MST SAT JAN 31 2015

Montana AWOS Reports

ROUNDUP     |KRPX 311055Z AUTO 00000KT 40SM M03/M09 A2986 RMK AO1 T10271088
LAUREL      |K6S8 311055Z AUTO 00000KT 40SM M02/M08 A2994 RMK AO1 T10211077
TWIN BRIDGES|K7S1 311055Z AUTO 09005KT 40SM M06/M11 A3003 RMK AO1 T10601110






000
SXUS55 KMSO 311043
OSOMSO
MONTANA AWOS SUMMARY
NATIONAL WEATHER SERVICE MISSOULA MT
343 AM MST SAT JAN 31 2015

Montana AWOS Reports

LAUREL      |K6S8 311035Z AUTO 23006KT 40SM M02/M07 A2994 RMK AO1 T10161066
ROUNDUP     |KRPX 311035Z AUTO 21005KT 40SM M02/M09 A2986 RMK AO1 T10211088






000
SXUS55 KMSO 311023
OSOMSO
MONTANA AWOS SUMMARY
NATIONAL WEATHER SERVICE MISSOULA MT
323 AM MST SAT JAN 31 2015

Montana AWOS Reports

LAUREL      |K6S8 311015Z AUTO 22005KT 40SM M01/M07 A2995 RMK AO1 T10051066
ROUNDUP     |KRPX 311015Z AUTO 00000KT 40SM M03/M09 A2987 RMK AO1 T10271088






000
SXUS55 KMSO 311014
OSOMSO
MONTANA AWOS SUMMARY
NATIONAL WEATHER SERVICE MISSOULA MT
313 AM MST SAT JAN 31 2015

Montana AWOS Reports

TWIN BRIDGES|K7S1 310955Z AUTO 00000KT 40SM M07/M12 A3005 RMK AO1 T10711116






000
SXUS55 KMSO 311003
OSOMSO
MONTANA AWOS SUMMARY
NATIONAL WEATHER SERVICE MISSOULA MT
303 AM MST SAT JAN 31 2015

Montana AWOS Reports

ROUNDUP     |KRPX 310955Z AUTO 22006KT 40SM M02/M08 A2987 RMK AO1 T10161082
LAUREL      |K6S8 310955Z AUTO 21004KT 40SM 01/M06 A2995 RMK AO1 T00061060






000
SXUS55 KMSO 310943
OSOMSO
MONTANA AWOS SUMMARY
NATIONAL WEATHER SERVICE MISSOULA MT
243 AM MST SAT JAN 31 2015

Montana AWOS Reports

ROUNDUP     |KRPX 310935Z AUTO 19008KT 40SM M02/M09 A2987 RMK AO1 T10211088
LAUREL      |K6S8 310935Z AUTO 22004KT 40SM 01/M06 A2996 RMK AO1 T00111060






000
SXUS55 KMSO 310923
OSOMSO
MONTANA AWOS SUMMARY
NATIONAL WEATHER SERVICE MISSOULA MT
223 AM MST SAT JAN 31 2015

Montana AWOS Reports

LAUREL      |K6S8 310915Z AUTO 23008KT 40SM 01/M06 A2996 RMK AO1 T00111060
ROUNDUP     |KRPX 310915Z AUTO 20007KT 40SM M02/M09 A2987 RMK AO1 T10211088






000
SXUS55 KMSO 310904
OSOMSO
MONTANA AWOS SUMMARY
NATIONAL WEATHER SERVICE MISSOULA MT
203 AM MST SAT JAN 31 2015

Montana AWOS Reports

ROUNDUP     |KRPX 310855Z AUTO 19009G17KT 40SM M02/M09 A2987 RMK AO1 T10211088
LAUREL      |K6S8 310855Z AUTO 22008KT 40SM 01/M06 A2996 RMK AO1 T00111060
SCOBEY      |K9S2 310855Z AUTO 05013G19KT 10SM M07/M09 A3013 RMK AO1 T10661093
TWIN BRIDGES|K7S1 310855Z AUTO 00000KT 40SM M07/M12 A3005 RMK AO1 T10661116






000
SXUS55 KMSO 310853
OSOMSO
MONTANA AWOS SUMMARY
NATIONAL WEATHER SERVICE MISSOULA MT
153 AM MST SAT JAN 31 2015

Montana AWOS Reports

LAUREL      |K6S8 310835Z AUTO 22009KT 40SM 01/M06 A2995 RMK AO1 T00111060






000
SXUS55 KMSO 310843
OSOMSO
MONTANA AWOS SUMMARY
NATIONAL WEATHER SERVICE MISSOULA MT
143 AM MST SAT JAN 31 2015

Montana AWOS Reports

ROUNDUP     |KRPX 310835Z AUTO 19009G15KT 40SM M02/M09 A2987 RMK AO1 T10211088






000
SXUS55 KMSO 310823
OSOMSO
MONTANA AWOS SUMMARY
NATIONAL WEATHER SERVICE MISSOULA MT
123 AM MST SAT JAN 31 2015

Montana AWOS Reports

LAUREL      |K6S8 310815Z AUTO 23008KT 40SM 01/M06 A2996 RMK AO1 T00111055
ROUNDUP     |KRPX 310815Z AUTO 20009KT 40SM M03/M09 A2989 RMK AO1 T10271088






000
SXUS55 KMSO 310803
OSOMSO
MONTANA AWOS SUMMARY
NATIONAL WEATHER SERVICE MISSOULA MT
103 AM MST SAT JAN 31 2015

Montana AWOS Reports

LAUREL      |K6S8 310755Z AUTO 24007KT 40SM 01/M06 A2997 RMK AO1 T00061055
ROUNDUP     |KRPX 310755Z AUTO 18008KT 40SM M02/M08 A2989 RMK AO1 T10211082
TWIN BRIDGES|K7S1 310755Z AUTO 00000KT 40SM M05/M11 A3007 RMK AO1 T10491105
SCOBEY      |K9S2 310755Z AUTO 05009G13KT 7SM M06/M09 A3013 RMK AO1 T10601088






000
SXUS55 KMSO 310753
OSOMSO
MONTANA AWOS SUMMARY
NATIONAL WEATHER SERVICE MISSOULA MT
1253 AM MST SAT JAN 31 2015

Montana AWOS Reports

MALTA       |KM75 310655Z AUTO 04006KT 25SM M02/M05 A3002 RMK AO1 T10211049






000
SXUS55 KMSO 310743
OSOMSO
MONTANA AWOS SUMMARY
NATIONAL WEATHER SERVICE MISSOULA MT
1243 AM MST SAT JAN 31 2015

Montana AWOS Reports

LAUREL      |K6S8 310735Z AUTO 00000KT 40SM M01/M07 A2997 RMK AO1 T10101066
ROUNDUP     |KRPX 310735Z AUTO 20006KT 40SM M03/M08 A2991 RMK AO1 T10321082






000
SXUS55 KMSO 310723
OSOMSO
MONTANA AWOS SUMMARY
NATIONAL WEATHER SERVICE MISSOULA MT
1223 AM MST SAT JAN 31 2015

Montana AWOS Reports

LAUREL      |K6S8 310715Z AUTO 00000KT 40SM 00/M06 A2999 RMK AO1 T00001060
ROUNDUP     |KRPX 310715Z AUTO 20005KT 40SM M03/M08 A2991 RMK AO1 T10271082






000
SXUS55 KMSO 310703
OSOMSO
MONTANA AWOS SUMMARY
NATIONAL WEATHER SERVICE MISSOULA MT
1203 AM MST SAT JAN 31 2015

Montana AWOS Reports

LAUREL      |K6S8 310655Z AUTO 22005KT 40SM 01/M06 A2999 RMK AO1 T00111055
ROUNDUP     |KRPX 310655Z AUTO 00000KT 40SM M01/M08 A2992 RMK AO1 T10101077
TWIN BRIDGES|K7S1 310655Z AUTO 00000KT 40SM M06/M11 A3007 RMK AO1 T10551105
SCOBEY      |K9S2 310655Z AUTO 04009G14KT 1 1/2SM M06/M09 A3014 RMK AO1 T10551088






000
SXUS55 KMSO 310644
OSOMSO
MONTANA AWOS SUMMARY
NATIONAL WEATHER SERVICE MISSOULA MT
1143 PM MST FRI JAN 30 2015

Montana AWOS Reports

LAUREL      |K6S8 310635Z AUTO 22009KT 40SM 00/M06 A2999 RMK AO1 T00001060
ROUNDUP     |KRPX 310635Z AUTO 00000KT 40SM M01/M08 A2992 RMK AO1 T10101077






000
SXUS55 KMSO 310623
OSOMSO
MONTANA AWOS SUMMARY
NATIONAL WEATHER SERVICE MISSOULA MT
1123 PM MST FRI JAN 30 2015

Montana AWOS Reports

LAUREL      |K6S8 310615Z AUTO 20005KT 40SM M01/M06 A3000 RMK AO1 T10051060
ROUNDUP     |KRPX 310615Z AUTO 20004KT 40SM 01/M07 A2993 RMK AO1 T00061071






000
SXUS55 KMSO 310603
OSOMSO
MONTANA AWOS SUMMARY
NATIONAL WEATHER SERVICE MISSOULA MT
1103 PM MST FRI JAN 30 2015

Montana AWOS Reports

LAUREL      |K6S8 310555Z AUTO 19005KT 40SM 00/M06 A3000 RMK AO1 T00001055
ROUNDUP     |KRPX 310555Z AUTO 19004KT 40SM 00/M08 A2993 RMK AO1 T00001077
TWIN BRIDGES|K7S1 310555Z AUTO 13005KT 40SM M06/M11 A3007 RMK AO1 T10601110
SCOBEY      |K9S2 310555Z AUTO 03010G14KT 1SM M06/M09 A3014 RMK AO1 T10551088
MALTA       |KM75 310555Z AUTO 08006KT 25SM M02/M04 A3003 RMK AO1 T10161043






000
SXUS55 KMSO 310543
OSOMSO
MONTANA AWOS SUMMARY
NATIONAL WEATHER SERVICE MISSOULA MT
1043 PM MST FRI JAN 30 2015

Montana AWOS Reports

LAUREL      |K6S8 310535Z AUTO 00000KT 40SM M01/M06 A3002 RMK AO1 T10101060
ROUNDUP     |KRPX 310535Z AUTO 00000KT 40SM 01/M08 A2993 RMK AO1 T00061082






000
SXUS55 KMSO 310523
OSOMSO
MONTANA AWOS SUMMARY
NATIONAL WEATHER SERVICE MISSOULA MT
1023 PM MST FRI JAN 30 2015

Montana AWOS Reports

LAUREL      |K6S8 310515Z AUTO 00000KT 40SM M01/M06 A3002 RMK AO1 T10051055
ROUNDUP     |KRPX 310515Z AUTO 19004KT 40SM 00/M09 A2994 RMK AO1 T00001088






000
SXUS55 KMSO 310004
OSOMSO
MONTANA AWOS SUMMARY
NATIONAL WEATHER SERVICE MISSOULA MT
503 PM MST FRI JAN 30 2015

Montana AWOS Reports

ROUNDUP     |KRPX 302355Z AUTO 00000KT 40SM 07/M11 A3003 RMK AO1 T00671110
TWIN BRIDGES|K7S1 302355Z AUTO 00000KT 40SM 05/M09 A3011 RMK AO1 T00501088
SCOBEY      |K9S2 302355Z AUTO 00000KT 25SM 00/M06 A3015 RMK AO1 T00001055






000
SXUS55 KMSO 302344
OSOMSO
MONTANA AWOS SUMMARY
NATIONAL WEATHER SERVICE MISSOULA MT
443 PM MST FRI JAN 30 2015

Montana AWOS Reports

LAUREL      |K6S8 302335Z AUTO 00000KT 40SM 07/M07 A3011 RMK AO1 T00721066
ROUNDUP     |KRPX 302335Z AUTO 00000KT 40SM 08/M11 A3004 RMK AO1 T00781105






000
SXUS55 KMSO 302323
OSOMSO
MONTANA AWOS SUMMARY
NATIONAL WEATHER SERVICE MISSOULA MT
423 PM MST FRI JAN 30 2015

Montana AWOS Reports

LAUREL      |K6S8 302315Z AUTO 00000KT 40SM 08/M07 A3011 RMK AO1 T00831066
ROUNDUP     |KRPX 302315Z AUTO 00000KT 40SM 09/M09 A3004 RMK AO1 T00891093






000
SXUS55 KMSO 302303
OSOMSO
MONTANA AWOS SUMMARY
NATIONAL WEATHER SERVICE MISSOULA MT
403 PM MST FRI JAN 30 2015

Montana AWOS Reports

ROUNDUP     |KRPX 302255Z AUTO 08004KT 40SM 09/M10 A3004 RMK AO1 T00891099
SCOBEY      |K9S2 302255Z AUTO 34009G13KT 15SM 03/M04 A3015 RMK AO1 T00281043
MALTA       |KM75 302255Z AUTO 00000KT 40SM 07/M01 A3012 RMK AO1 T00721010
TWIN BRIDGES|K7S1 302255Z AUTO 00000KT 40SM 06/M09 A3012 RMK AO1 T00561093






000
SXUS55 KMSO 302244
OSOMSO
MONTANA AWOS SUMMARY
NATIONAL WEATHER SERVICE MISSOULA MT
343 PM MST FRI JAN 30 2015

Montana AWOS Reports

ROUNDUP     |KRPX 302235Z AUTO 06005KT 40SM 09/M10 A3005 RMK AO1 T00941099






000
SXUS55 KMSO 302223
OSOMSO
MONTANA AWOS SUMMARY
NATIONAL WEATHER SERVICE MISSOULA MT
323 PM MST FRI JAN 30 2015

Montana AWOS Reports

LAUREL      |K6S8 302215Z AUTO 00000KT 40SM 10/M08 A3012 RMK AO1 T01001082
ROUNDUP     |KRPX 302215Z AUTO 05005KT 40SM 09/M12 A3005 RMK AO1 T00941116






000
SXUS55 KMSO 302213
OSOMSO
MONTANA AWOS SUMMARY
NATIONAL WEATHER SERVICE MISSOULA MT
313 PM MST FRI JAN 30 2015

Montana AWOS Reports

SCOBEY      |K9S2 302155Z AUTO 34006KT 15SM 04/M04 A3015 RMK AO1 T00391038
MALTA       |KM75 302155Z AUTO 00000KT 40SM 08/M01 A3013 RMK AO1 T00831005
TWIN BRIDGES|K7S1 302155Z AUTO 00000KT 40SM 06/M09 A3013 RMK AO1 T00561093






000
SXUS55 KMSO 302158
OSOMSO
MONTANA AWOS SUMMARY
NATIONAL WEATHER SERVICE MISSOULA MT
257 PM MST FRI JAN 30 2015

Montana AWOS Reports

LAUREL      |K6S8 302135Z AUTO 00000KT 40SM 11/M08 A3013 RMK AO1 T01061082






000
SXUS55 KMSO 302103
OSOMSO
MONTANA AWOS SUMMARY
NATIONAL WEATHER SERVICE MISSOULA MT
203 PM MST FRI JAN 30 2015

Montana AWOS Reports

LAUREL      |K6S8 302055Z AUTO 00000KT 40SM 10/M08 A3014 RMK AO1 T01001082
ROUNDUP     |KRPX 302055Z AUTO 00000KT 40SM 10/M11 A3007 RMK AO1 T01001110
SCOBEY      |K9S2 302055Z AUTO 34009KT 40SM 04/M04 A3015 RMK AO1 T00441038
MALTA       |KM75 302055Z AUTO 00000KT 40SM 06/00 A3015 RMK AO1 T00610000
TWIN BRIDGES|K7S1 302055Z AUTO VRB04KT 40SM 04/M08 A3015 RMK AO1 T00441082






000
SXUS55 KMSO 302043
OSOMSO
MONTANA AWOS SUMMARY
NATIONAL WEATHER SERVICE MISSOULA MT
143 PM MST FRI JAN 30 2015

Montana AWOS Reports

LAUREL      |K6S8 302035Z AUTO 00000KT 40SM 09/M09 A3015 RMK AO1 T00941088
ROUNDUP     |KRPX 302035Z AUTO 00000KT 40SM 09/M11 A3008 RMK AO1 T00941110






000
SXUS55 KMSO 302033
OSOMSO
MONTANA AWOS SUMMARY
NATIONAL WEATHER SERVICE MISSOULA MT
132 PM MST FRI JAN 30 2015

Montana AWOS Reports

LAUREL      |K6S8 302015Z AUTO 00000KT 40SM 09/M08 A3015 RMK AO1 T00941082






000
SXUS55 KMSO 302003
OSOMSO
MONTANA AWOS SUMMARY
NATIONAL WEATHER SERVICE MISSOULA MT
103 PM MST FRI JAN 30 2015

Montana AWOS Reports

LAUREL      |K6S8 301955Z AUTO 00000KT 40SM 09/M07 A3016 RMK AO1 T00891071
ROUNDUP     |KRPX 301955Z AUTO 00000KT 40SM 09/M10 A3009 RMK AO1 T00941099
SCOBEY      |K9S2 301955Z AUTO 34010KT 15SM 03/M04 A3015 RMK AO1 T00331038
MALTA       |KM75 301955Z AUTO 00000KT 40SM 03/M01 A3017 RMK AO1 T00331010
TWIN BRIDGES|K7S1 301955Z AUTO 11005KT 40SM 03/M08 A3018 RMK AO1 T00281077






000
SXUS55 KMSO 301943
OSOMSO
MONTANA AWOS SUMMARY
NATIONAL WEATHER SERVICE MISSOULA MT
1243 PM MST FRI JAN 30 2015

Montana AWOS Reports

LAUREL      |K6S8 301935Z AUTO 00000KT 40SM 08/M07 A3017 RMK AO1 T00831066
ROUNDUP     |KRPX 301935Z AUTO 00000KT 40SM 09/M09 A3009 RMK AO1 T00891093






000
SXUS55 KMSO 301923
OSOMSO
MONTANA AWOS SUMMARY
NATIONAL WEATHER SERVICE MISSOULA MT
1223 PM MST FRI JAN 30 2015

Montana AWOS Reports

LAUREL      |K6S8 301915Z AUTO 19005KT 40SM 08/M06 A3018 RMK AO1 T00781060
ROUNDUP     |KRPX 301915Z AUTO 00000KT 40SM 08/M07 A3010 RMK AO1 T00781066






000
SXUS55 KMSO 301903
OSOMSO
MONTANA AWOS SUMMARY
NATIONAL WEATHER SERVICE MISSOULA MT
1203 PM MST FRI JAN 30 2015

Montana AWOS Reports

LAUREL      |K6S8 301855Z AUTO 20004KT 40SM 07/M06 A3018 RMK AO1 T00721060
ROUNDUP     |KRPX 301855Z AUTO 00000KT 40SM 07/M07 A3011 RMK AO1 T00671066
SCOBEY      |K9S2 301855Z AUTO 33009KT 15SM 03/M04 A3017 RMK AO1 T00281038
TWIN BRIDGES|K7S1 301855Z AUTO 12004KT 40SM 01/M07 A3021 RMK AO1 T00061071
MALTA       |KM75 301855Z AUTO 00000KT 40SM 01/M01 A3019 RMK AO1 T00111010






000
SXUS55 KMSO 301844
OSOMSO
MONTANA AWOS SUMMARY
NATIONAL WEATHER SERVICE MISSOULA MT
1143 AM MST FRI JAN 30 2015

Montana AWOS Reports

LAUREL      |K6S8 301835Z AUTO 20004KT 40SM 06/M06 A3018 RMK AO1 T00611055
ROUNDUP     |KRPX 301835Z AUTO 00000KT 40SM 06/M06 A3012 RMK AO1 T00561060






000
SXUS55 KMSO 301823
OSOMSO
MONTANA AWOS SUMMARY
NATIONAL WEATHER SERVICE MISSOULA MT
1123 AM MST FRI JAN 30 2015

Montana AWOS Reports

LAUREL      |K6S8 301815Z AUTO 19005KT 40SM 05/M06 A3019 RMK AO1 T00501055
ROUNDUP     |KRPX 301815Z AUTO 00000KT 40SM 05/M06 A3013 RMK AO1 T00501055






000
SXUS55 KMSO 301803
OSOMSO
MONTANA AWOS SUMMARY
NATIONAL WEATHER SERVICE MISSOULA MT
1103 AM MST FRI JAN 30 2015

Montana AWOS Reports

LAUREL      |K6S8 301755Z AUTO 20005KT 40SM 04/M06 A3019 RMK AO1 T00391060
ROUNDUP     |KRPX 301755Z AUTO 00000KT 40SM 04/M06 A3013 RMK AO1 T00391055
SCOBEY      |K9S2 301755Z AUTO 00000KT 15SM 00/M04 A3018 RMK AO1 T00001038
MALTA       |KM75 301755Z AUTO 00000KT 40SM M01/M03 A3021 RMK AO1 T10101032
TWIN BRIDGES|K7S1 301755Z AUTO 14005KT 40SM M02/M08 A3022 RMK AO1 T10161082






000
SXUS55 KMSO 301743
OSOMSO
MONTANA AWOS SUMMARY
NATIONAL WEATHER SERVICE MISSOULA MT
1043 AM MST FRI JAN 30 2015

Montana AWOS Reports

LAUREL      |K6S8 301735Z AUTO 20007KT 40SM 03/M08 A3019 RMK AO1 T00281077
ROUNDUP     |KRPX 301735Z AUTO 00000KT 40SM 03/M06 A3013 RMK AO1 T00281055






000
SXUS55 KMSO 301724
OSOMSO
MONTANA AWOS SUMMARY
NATIONAL WEATHER SERVICE MISSOULA MT
1023 AM MST FRI JAN 30 2015

Montana AWOS Reports

LAUREL      |K6S8 301715Z AUTO 20004KT 40SM 02/M07 A3019 RMK AO1 T00171071
ROUNDUP     |KRPX 301715Z AUTO 00000KT 40SM 02/M06 A3012 RMK AO1 T00221055






000
SXUS55 KMSO 301713
OSOMSO
MONTANA AWOS SUMMARY
NATIONAL WEATHER SERVICE MISSOULA MT
1013 AM MST FRI JAN 30 2015

Montana AWOS Reports

TWIN BRIDGES|K7S1 301655Z AUTO 16005KT 40SM M03/M09 A3023 RMK AO1 T10321093
MALTA       |KM75 301655Z AUTO 00000KT 25SM M03/M06 A3020 RMK AO1 T10321055






000
SXUS55 KMSO 301704
OSOMSO
MONTANA AWOS SUMMARY
NATIONAL WEATHER SERVICE MISSOULA MT
1003 AM MST FRI JAN 30 2015

Montana AWOS Reports

LAUREL      |K6S8 301655Z AUTO 21007KT 40SM 01/M07 A3019 RMK AO1 T00061066
ROUNDUP     |KRPX 301655Z AUTO 00000KT 40SM 01/M06 A3012 RMK AO1 T00111060
SCOBEY      |K9S2 301655Z AUTO 15004KT 15SM M02/M06 A3018 RMK AO1 T10211055






000
SXUS55 KMSO 301643
OSOMSO
MONTANA AWOS SUMMARY
NATIONAL WEATHER SERVICE MISSOULA MT
943 AM MST FRI JAN 30 2015

Montana AWOS Reports

LAUREL      |K6S8 301635Z AUTO 00000KT 40SM M01/M07 A3019 RMK AO1 T10051066
ROUNDUP     |KRPX 301635Z AUTO 00000KT 40SM 00/M07 A3012 RMK AO1 T00001066






000
SXUS55 KMSO 301623
OSOMSO
MONTANA AWOS SUMMARY
NATIONAL WEATHER SERVICE MISSOULA MT
923 AM MST FRI JAN 30 2015

Montana AWOS Reports

LAUREL      |K6S8 301615Z AUTO 00000KT 40SM M01/M07 A3018 RMK AO1 T10101071
ROUNDUP     |KRPX 301615Z AUTO 00000KT 40SM M01/M08 A3012 RMK AO1 T10101077






000
SXUS55 KMSO 301613
OSOMSO
MONTANA AWOS SUMMARY
NATIONAL WEATHER SERVICE MISSOULA MT
912 AM MST FRI JAN 30 2015

Montana AWOS Reports

MALTA       |KM75 301555Z AUTO 00000KT 15SM M06/M08 A3019 RMK AO1 T10601082






000
SXUS55 KMSO 301603
OSOMSO
MONTANA AWOS SUMMARY
NATIONAL WEATHER SERVICE MISSOULA MT
903 AM MST FRI JAN 30 2015

Montana AWOS Reports

ROUNDUP     |KRPX 301555Z AUTO 00000KT 40SM M02/M07 A3011 RMK AO1 T10161071
SCOBEY      |K9S2 301555Z AUTO 00000KT 15SM M05/M08 A3016 RMK AO1 T10491082
TWIN BRIDGES|K7S1 301555Z AUTO 00000KT 40SM M06/M11 A3023 RMK AO1 T10601110






000
SXUS55 KMSO 301544
OSOMSO
MONTANA AWOS SUMMARY
NATIONAL WEATHER SERVICE MISSOULA MT
843 AM MST FRI JAN 30 2015

Montana AWOS Reports

ROUNDUP     |KRPX 301535Z AUTO 00000KT 40SM M03/M08 A3011 RMK AO1 T10271077






000
SXUS55 KMSO 301523
OSOMSO
MONTANA AWOS SUMMARY
NATIONAL WEATHER SERVICE MISSOULA MT
823 AM MST FRI JAN 30 2015

Montana AWOS Reports

LAUREL      |K6S8 301515Z AUTO 00000KT 40SM M03/M09 A3019 RMK AO1 T10321088
ROUNDUP     |KRPX 301515Z AUTO 00000KT 40SM M03/M08 A3011 RMK AO1 T10321082






000
SXUS55 KMSO 301514
OSOMSO
MONTANA AWOS SUMMARY
NATIONAL WEATHER SERVICE MISSOULA MT
813 AM MST FRI JAN 30 2015

Montana AWOS Reports

ROUNDUP     |KRPX 301455Z AUTO 00000KT 40SM M03/M08 A3010 RMK AO1 T10271077
TWIN BRIDGES|K7S1 301455Z AUTO 00000KT 40SM M07/M12 A3023 RMK AO1 T10711121
SCOBEY      |K9S2 301455Z AUTO 00000KT 10SM M08/M11 A3014 RMK AO1 T10771110
MALTA       |KM75 301455Z AUTO 00000KT 15SM M08/M11 A3018 RMK AO1 T10771105






000
SXUS55 KMSO 301503
OSOMSO
MONTANA AWOS SUMMARY
NATIONAL WEATHER SERVICE MISSOULA MT
803 AM MST FRI JAN 30 2015

Montana AWOS Reports

LAUREL      |K6S8 301455Z AUTO 23004KT 40SM M03/M09 A3018 RMK AO1 T10321088






000
SXUS55 KMSO 301443
OSOMSO
MONTANA AWOS SUMMARY
NATIONAL WEATHER SERVICE MISSOULA MT
743 AM MST FRI JAN 30 2015

Montana AWOS Reports

ROUNDUP     |KRPX 301435Z AUTO 21009KT 40SM M03/M08 A3010 RMK AO1 T10321077






000
SXUS55 KMSO 301423
OSOMSO
MONTANA AWOS SUMMARY
NATIONAL WEATHER SERVICE MISSOULA MT
723 AM MST FRI JAN 30 2015

Montana AWOS Reports

LAUREL      |K6S8 301415Z AUTO 00000KT 40SM M02/M09 A3018 RMK AO1 T10211088
ROUNDUP     |KRPX 301415Z AUTO 20011KT 40SM M03/M07 A3009 RMK AO1 T10321071






000
SXUS55 KMSO 301403
OSOMSO
MONTANA AWOS SUMMARY
NATIONAL WEATHER SERVICE MISSOULA MT
703 AM MST FRI JAN 30 2015

Montana AWOS Reports

LAUREL      |K6S8 301355Z AUTO 00000KT 40SM M02/M08 A3018 RMK AO1 T10211082
ROUNDUP     |KRPX 301355Z AUTO 20010KT 40SM M04/M07 A3010 RMK AO1 T10381071
SCOBEY      |K9S2 301355Z AUTO 00000KT 10SM M08/M11 A3012 RMK AO1 T10771110
MALTA       |KM75 301355Z AUTO 00000KT 2 1/2SM M07/M09 A3017 RMK AO1 T10711093
TWIN BRIDGES|K7S1 301355Z AUTO 12004KT 40SM M06/M11 A3023 RMK AO1 T10551105






000
SXUS55 KMSO 301344
OSOMSO
MONTANA AWOS SUMMARY
NATIONAL WEATHER SERVICE MISSOULA MT
643 AM MST FRI JAN 30 2015

Montana AWOS Reports

LAUREL      |K6S8 301335Z AUTO 00000KT 40SM M03/M08 A3017 RMK AO1 T10271082
ROUNDUP     |KRPX 301335Z AUTO 20008KT 40SM M04/M08 A3009 RMK AO1 T10381077






000
SXUS55 KMSO 301324
OSOMSO
MONTANA AWOS SUMMARY
NATIONAL WEATHER SERVICE MISSOULA MT
623 AM MST FRI JAN 30 2015

Montana AWOS Reports

LAUREL      |K6S8 301315Z AUTO 00000KT 40SM M03/M09 A3017 RMK AO1 T10321088
ROUNDUP     |KRPX 301315Z AUTO 00000KT 40SM M04/M08 A3010 RMK AO1 T10381082






000
SXUS55 KMSO 301313
OSOMSO
MONTANA AWOS SUMMARY
NATIONAL WEATHER SERVICE MISSOULA MT
613 AM MST FRI JAN 30 2015

Montana AWOS Reports

MALTA       |KM75 301255Z AUTO 00000KT 1/2SM M06/M08 A3016 RMK AO1 T10601082






000
SXUS55 KMSO 301303
OSOMSO
MONTANA AWOS SUMMARY
NATIONAL WEATHER SERVICE MISSOULA MT
603 AM MST FRI JAN 30 2015

Montana AWOS Reports

LAUREL      |K6S8 301255Z AUTO 00000KT 40SM M03/M08 A3017 RMK AO1 T10321082
ROUNDUP     |KRPX 301255Z AUTO 00000KT 40SM M04/M08 A3010 RMK AO1 T10381082
TWIN BRIDGES|K7S1 301255Z AUTO 12006KT 40SM M05/M11 A3023 RMK AO1 T10491105
SCOBEY      |K9S2 301255Z AUTO 00000KT 10SM M08/M11 A3012 RMK AO1 T10771110






000
SXUS55 KMSO 301243
OSOMSO
MONTANA AWOS SUMMARY
NATIONAL WEATHER SERVICE MISSOULA MT
543 AM MST FRI JAN 30 2015

Montana AWOS Reports

LAUREL      |K6S8 301235Z AUTO 00000KT 40SM M03/M08 A3017 RMK AO1 T10321082
ROUNDUP     |KRPX 301235Z AUTO 00000KT 40SM M04/M08 A3010 RMK AO1 T10431082






000
SXUS55 KMSO 301233
OSOMSO
MONTANA AWOS SUMMARY
NATIONAL WEATHER SERVICE MISSOULA MT
532 AM MST FRI JAN 30 2015

Montana AWOS Reports

MALTA       |KM75 301055Z AUTO 00000KT 15SM M07/M10 A3015 RMK AO1 T10711099
MALTA       |KM75 301155Z AUTO 00000KT 1/2SM M06/M08 A3015 RMK AO1 T10551077






000
SXUS55 KMSO 301224
OSOMSO
MONTANA AWOS SUMMARY
NATIONAL WEATHER SERVICE MISSOULA MT
523 AM MST FRI JAN 30 2015

Montana AWOS Reports

LAUREL      |K6S8 301215Z AUTO 00000KT 40SM M03/M11 A3016 RMK AO1 T10271105
ROUNDUP     |KRPX 301215Z AUTO 00000KT 40SM M04/M08 A3010 RMK AO1 T10381077
MALTA       |KM75 300955Z AUTO 00000KT 2 1/2SM M07/M10 A3015 RMK AO1 T10711099






000
SXUS55 KMSO 301213
OSOMSO
MONTANA AWOS SUMMARY
NATIONAL WEATHER SERVICE MISSOULA MT
513 AM MST FRI JAN 30 2015

Montana AWOS Reports

SCOBEY      |K9S2 301155Z AUTO 00000KT 5SM M08/M12 A3011 RMK AO1 T10821116






000
SXUS55 KMSO 301203
OSOMSO
MONTANA AWOS SUMMARY
NATIONAL WEATHER SERVICE MISSOULA MT
503 AM MST FRI JAN 30 2015

Montana AWOS Reports

LAUREL      |K6S8 301155Z AUTO 26005KT 40SM M02/M09 A3016 RMK AO1 T10211093
ROUNDUP     |KRPX 301155Z AUTO 00000KT 40SM M03/M08 A3010 RMK AO1 T10321077
TWIN BRIDGES|K7S1 301155Z AUTO 00000KT 40SM M06/M11 A3023 RMK AO1 T10551105






000
SXUS55 KMSO 301143
OSOMSO
MONTANA AWOS SUMMARY
NATIONAL WEATHER SERVICE MISSOULA MT
443 AM MST FRI JAN 30 2015

Montana AWOS Reports

LAUREL      |K6S8 301135Z AUTO 00000KT 40SM M03/M09 A3016 RMK AO1 T10271088
ROUNDUP     |KRPX 301135Z AUTO 00000KT 40SM M03/M07 A3009 RMK AO1 T10321071






000
SXUS55 KMSO 301123
OSOMSO
MONTANA AWOS SUMMARY
NATIONAL WEATHER SERVICE MISSOULA MT
423 AM MST FRI JAN 30 2015

Montana AWOS Reports

LAUREL      |K6S8 301115Z AUTO 00000KT 40SM M02/M09 A3016 RMK AO1 T10211088
ROUNDUP     |KRPX 301115Z AUTO 00000KT 40SM M03/M07 A3009 RMK AO1 T10271071






000
SXUS55 KMSO 301103
OSOMSO
MONTANA AWOS SUMMARY
NATIONAL WEATHER SERVICE MISSOULA MT
403 AM MST FRI JAN 30 2015

Montana AWOS Reports

ROUNDUP     |KRPX 301055Z AUTO 00000KT 40SM M03/M07 A3009 RMK AO1 T10271066
TWIN BRIDGES|K7S1 301055Z AUTO 00000KT 40SM M07/M12 A3023 RMK AO1 T10661116
SCOBEY      |K9S2 301055Z AUTO 15004KT 5SM M08/M11 A3011 RMK AO1 T10771110






000
SXUS55 KMSO 301044
OSOMSO
MONTANA AWOS SUMMARY
NATIONAL WEATHER SERVICE MISSOULA MT
343 AM MST FRI JAN 30 2015

Montana AWOS Reports

LAUREL      |K6S8 301035Z AUTO 00000KT 40SM M01/M06 A3017 RMK AO1 T10051055
ROUNDUP     |KRPX 301035Z AUTO 00000KT 40SM M01/M06 A3009 RMK AO1 T10101060






000
SXUS55 KMSO 301023
OSOMSO
MONTANA AWOS SUMMARY
NATIONAL WEATHER SERVICE MISSOULA MT
323 AM MST FRI JAN 30 2015

Montana AWOS Reports

LAUREL      |K6S8 301015Z AUTO 00000KT 40SM M01/M05 A3017 RMK AO1 T10051049
ROUNDUP     |KRPX 301015Z AUTO 00000KT 40SM M01/M06 A3009 RMK AO1 T10101055






000
SXUS55 KMSO 301013
OSOMSO
MONTANA AWOS SUMMARY
NATIONAL WEATHER SERVICE MISSOULA MT
313 AM MST FRI JAN 30 2015

Montana AWOS Reports

ROUNDUP     |KRPX 300955Z AUTO 00000KT 40SM M02/M06 A3009 RMK AO1 T10161060
TWIN BRIDGES|K7S1 300955Z AUTO 10004KT 40SM M06/M10 A3025 RMK AO1 T10551099
SCOBEY      |K9S2 300955Z AUTO 00000KT 7SM M07/M11 A3012 RMK AO1 T10711105






000
SXUS55 KMSO 301003
OSOMSO
MONTANA AWOS SUMMARY
NATIONAL WEATHER SERVICE MISSOULA MT
303 AM MST FRI JAN 30 2015

Montana AWOS Reports

LAUREL      |K6S8 300955Z AUTO 22004KT 40SM 01/M04 A3017 RMK AO1 T00061038






000
SXUS55 KMSO 300944
OSOMSO
MONTANA AWOS SUMMARY
NATIONAL WEATHER SERVICE MISSOULA MT
243 AM MST FRI JAN 30 2015

Montana AWOS Reports

LAUREL      |K6S8 300935Z AUTO 22005KT 40SM 01/M06 A3017 RMK AO1 T00111060
ROUNDUP     |KRPX 300935Z AUTO 20004KT 40SM M01/M05 A3009 RMK AO1 T10051049






000
SXUS55 KMSO 300923
OSOMSO
MONTANA AWOS SUMMARY
NATIONAL WEATHER SERVICE MISSOULA MT
223 AM MST FRI JAN 30 2015

Montana AWOS Reports

LAUREL      |K6S8 300915Z AUTO 20004KT 40SM 01/M06 A3018 RMK AO1 T00111060
ROUNDUP     |KRPX 300915Z AUTO 20007KT 40SM 00/M04 A3009 RMK AO1 T00001043
MALTA       |KM75 300855Z AUTO 00000KT 1/4SM M06/M09 A3015 RMK AO1 T10601088






000
SXUS55 KMSO 300913
OSOMSO
MONTANA AWOS SUMMARY
NATIONAL WEATHER SERVICE MISSOULA MT
213 AM MST FRI JAN 30 2015

Montana AWOS Reports

LAUREL      |K6S8 300855Z AUTO 19004KT 40SM 02/M06 A3018 RMK AO1 T00171060
ROUNDUP     |KRPX 300855Z AUTO 20006KT 40SM 00/M04 A3009 RMK AO1 T00001043
TWIN BRIDGES|K7S1 300855Z AUTO 00000KT 40SM M05/M09 A3024 RMK AO1 T10491093
SCOBEY      |K9S2 300855Z AUTO 00000KT 7SM M06/M09 A3012 RMK AO1 T10601093






000
SXUS55 KMSO 300844
OSOMSO
MONTANA AWOS SUMMARY
NATIONAL WEATHER SERVICE MISSOULA MT
143 AM MST FRI JAN 30 2015

Montana AWOS Reports

LAUREL      |K6S8 300835Z AUTO 20004KT 40SM 03/M06 A3017 RMK AO1 T00331055
ROUNDUP     |KRPX 300835Z AUTO 21005KT 40SM M01/M05 A3010 RMK AO1 T10051049






000
SXUS55 KMSO 300823
OSOMSO
MONTANA AWOS SUMMARY
NATIONAL WEATHER SERVICE MISSOULA MT
122 AM MST FRI JAN 30 2015

Montana AWOS Reports

LAUREL      |K6S8 300815Z AUTO 22008KT 40SM 03/M06 A3017 RMK AO1 T00331055
ROUNDUP     |KRPX 300815Z AUTO 20007KT 40SM 00/M04 A3010 RMK AO1 T00001038






000
SXUS55 KMSO 300813
OSOMSO
MONTANA AWOS SUMMARY
NATIONAL WEATHER SERVICE MISSOULA MT
113 AM MST FRI JAN 30 2015

Montana AWOS Reports

SCOBEY      |K9S2 300755Z AUTO 00000KT 7SM M06/M09 A3012 RMK AO1 T10601093
MALTA       |KM75 300755Z AUTO 00000KT 4SM M06/M09 A3013 RMK AO1 T10601088






000
SXUS55 KMSO 300803
OSOMSO
MONTANA AWOS SUMMARY
NATIONAL WEATHER SERVICE MISSOULA MT
103 AM MST FRI JAN 30 2015

Montana AWOS Reports

ROUNDUP     |KRPX 300755Z AUTO 00000KT 40SM 00/M04 A3010 RMK AO1 T00001043
LAUREL      |K6S8 300755Z AUTO 00000KT 40SM 02/M06 A3018 RMK AO1 T00221055
TWIN BRIDGES|K7S1 300755Z AUTO 12004KT 40SM M03/M08 A3025 RMK AO1 T10271082






000
SXUS55 KMSO 300743
OSOMSO
MONTANA AWOS SUMMARY
NATIONAL WEATHER SERVICE MISSOULA MT
1243 AM MST FRI JAN 30 2015

Montana AWOS Reports

ROUNDUP     |KRPX 300735Z AUTO 20005KT 40SM 01/M04 A3010 RMK AO1 T00061038






000
SXUS55 KMSO 300723
OSOMSO
MONTANA AWOS SUMMARY
NATIONAL WEATHER SERVICE MISSOULA MT
1223 AM MST FRI JAN 30 2015

Montana AWOS Reports

LAUREL      |K6S8 300715Z AUTO 20004KT 40SM 03/M05 A3019 RMK AO1 T00331049
ROUNDUP     |KRPX 300715Z AUTO 21008KT 40SM 01/M04 A3010 RMK AO1 T00111038






000
SXUS55 KMSO 300703
OSOMSO
MONTANA AWOS SUMMARY
NATIONAL WEATHER SERVICE MISSOULA MT
1203 AM MST FRI JAN 30 2015

Montana AWOS Reports

LAUREL      |K6S8 300655Z AUTO 23008KT 40SM 04/M05 A3019 RMK AO1 T00391049
SCOBEY      |K9S2 300655Z AUTO 00000KT 10SM M05/M08 A3014 RMK AO1 T10491082
MALTA       |KM75 300655Z AUTO 00000KT 3/4SM M05/M07 A3015 RMK AO1 T10491071
TWIN BRIDGES|K7S1 300655Z AUTO 10004KT 40SM M04/M09 A3025 RMK AO1 T10431088






000
SXUS55 KMSO 300644
OSOMSO
MONTANA AWOS SUMMARY
NATIONAL WEATHER SERVICE MISSOULA MT
1143 PM MST THU JAN 29 2015

Montana AWOS Reports

LAUREL      |K6S8 300635Z AUTO 22009KT 40SM 04/M05 A3019 RMK AO1 T00391049






000
SXUS55 KMSO 300623
OSOMSO
MONTANA AWOS SUMMARY
NATIONAL WEATHER SERVICE MISSOULA MT
1123 PM MST THU JAN 29 2015

Montana AWOS Reports

ROUNDUP     |KRPX 300615Z AUTO 20006KT 40SM 01/M04 A3010 RMK AO1 T00111038
LAUREL      |K6S8 300615Z AUTO 22009G14KT 40SM 04/M05 A3020 RMK AO1 T00391049






000
SXUS55 KMSO 300613
OSOMSO
MONTANA AWOS SUMMARY
NATIONAL WEATHER SERVICE MISSOULA MT
1113 PM MST THU JAN 29 2015

Montana AWOS Reports

MALTA       |KM75 300555Z AUTO 00000KT 1/4SM M04/M07 A3014 RMK AO1 T10431066
SCOBEY      |K9S2 300555Z AUTO 00000KT 15SM M04/M08 A3014 RMK AO1 T10431077






000
SXUS55 KMSO 300603
OSOMSO
MONTANA AWOS SUMMARY
NATIONAL WEATHER SERVICE MISSOULA MT
1103 PM MST THU JAN 29 2015

Montana AWOS Reports

LAUREL      |K6S8 300555Z AUTO 22008KT 40SM 04/M05 A3020 RMK AO1 T00391049
TWIN BRIDGES|K7S1 300555Z AUTO 13006KT 40SM M04/M08 A3025 RMK AO1 T10381082






000
SXUS55 KMSO 300543
OSOMSO
MONTANA AWOS SUMMARY
NATIONAL WEATHER SERVICE MISSOULA MT
1043 PM MST THU JAN 29 2015

Montana AWOS Reports

LAUREL      |K6S8 300535Z AUTO 24008KT 40SM 03/M05 A3021 RMK AO1 T00331049






000
SXUS55 KMSO 300523
OSOMSO
MONTANA AWOS SUMMARY
NATIONAL WEATHER SERVICE MISSOULA MT
1023 PM MST THU JAN 29 2015

Montana AWOS Reports

ROUNDUP     |KRPX 300515Z AUTO 19005KT 40SM 02/M03 A3011 RMK AO1 T00171032
LAUREL      |K6S8 300515Z AUTO 24009KT 40SM 04/M05 A3021 RMK AO1 T00391049






000
SXUS55 KMSO 300513
OSOMSO
MONTANA AWOS SUMMARY
NATIONAL WEATHER SERVICE MISSOULA MT
1013 PM MST THU JAN 29 2015

Montana AWOS Reports

MALTA       |KM75 300455Z AUTO 00000KT 1/2SM M04/M06 A3015 RMK AO1 T10381060






000
SXUS55 KMSO 300023
OSOMSO
MONTANA AWOS SUMMARY
NATIONAL WEATHER SERVICE MISSOULA MT
523 PM MST THU JAN 29 2015

Montana AWOS Reports

SCOBEY      |K9S2 292355Z AUTO 13009KT 25SM M01/M07 A3025 RMK AO1 T10051066
MALTA       |KM75 292355Z AUTO 00000KT 10SM 01/M03 A3020 RMK AO1 T00111027
TWIN BRIDGES|K7S1 292355Z AUTO 00000KT 40SM 03/M06 A3026 RMK AO1 T00331060






000
SXUS55 KMSO 300004
OSOMSO
MONTANA AWOS SUMMARY
NATIONAL WEATHER SERVICE MISSOULA MT
503 PM MST THU JAN 29 2015

Montana AWOS Reports

LAUREL      |K6S8 292355Z AUTO 23007KT 40SM 07/M05 A3023 RMK AO1 T00671049






000
SXUS55 KMSO 292343
OSOMSO
MONTANA AWOS SUMMARY
NATIONAL WEATHER SERVICE MISSOULA MT
443 PM MST THU JAN 29 2015

Montana AWOS Reports

LAUREL      |K6S8 292335Z AUTO 22007KT 40SM 08/M04 A3023 RMK AO1 T00781043






000
SXUS55 KMSO 292323
OSOMSO
MONTANA AWOS SUMMARY
NATIONAL WEATHER SERVICE MISSOULA MT
423 PM MST THU JAN 29 2015

Montana AWOS Reports

ROUNDUP     |KRPX 292315Z AUTO 19013G18KT 40SM 10/M06 A3014 RMK AO1 T01001055
LAUREL      |K6S8 292315Z AUTO 21006KT 40SM 09/M04 A3023 RMK AO1 T00891038






000
SXUS55 KMSO 292313
OSOMSO
MONTANA AWOS SUMMARY
NATIONAL WEATHER SERVICE MISSOULA MT
413 PM MST THU JAN 29 2015

Montana AWOS Reports

SCOBEY      |K9S2 292255Z AUTO 14009KT 40SM 01/M07 A3026 RMK AO1 T00111071
MALTA       |KM75 292255Z AUTO 02005KT 25SM 03/M01 A3021 RMK AO1 T00331010






000
SXUS55 KMSO 292303
OSOMSO
MONTANA AWOS SUMMARY
NATIONAL WEATHER SERVICE MISSOULA MT
403 PM MST THU JAN 29 2015

Montana AWOS Reports

LAUREL      |K6S8 292255Z AUTO 20011G15KT 40SM 09/M04 A3023 RMK AO1 T00891043
ROUNDUP     |KRPX 292255Z AUTO 18011G17KT 40SM 10/M05 A3014 RMK AO1 T01001049
TWIN BRIDGES|K7S1 292255Z AUTO 00000KT 40SM 04/M06 A3026 RMK AO1 T00441060






000
SXUS55 KMSO 292244
OSOMSO
MONTANA AWOS SUMMARY
NATIONAL WEATHER SERVICE MISSOULA MT
343 PM MST THU JAN 29 2015

Montana AWOS Reports

LAUREL      |K6S8 292235Z AUTO 19011G16KT 40SM 09/M04 A3023 RMK AO1 T00941043






000
SXUS55 KMSO 292233
OSOMSO
MONTANA AWOS SUMMARY
NATIONAL WEATHER SERVICE MISSOULA MT
333 PM MST THU JAN 29 2015

Montana AWOS Reports

MALTA       |KM75 292155Z AUTO 03005KT 15SM 06/00 A3021 RMK AO1 T00560000






000
SXUS55 KMSO 292223
OSOMSO
MONTANA AWOS SUMMARY
NATIONAL WEATHER SERVICE MISSOULA MT
323 PM MST THU JAN 29 2015

Montana AWOS Reports

ROUNDUP     |KRPX 292215Z AUTO 20011G15KT 40SM 11/M05 A3014 RMK AO1 T01061049






000
SXUS55 KMSO 292203
OSOMSO
MONTANA AWOS SUMMARY
NATIONAL WEATHER SERVICE MISSOULA MT
303 PM MST THU JAN 29 2015

Montana AWOS Reports

ROUNDUP     |KRPX 292155Z AUTO 20008KT 40SM 11/M05 A3014 RMK AO1 T01061049
SCOBEY      |K9S2 292155Z AUTO 14009KT 25SM 01/M06 A3028 RMK AO1 T00111060
LAUREL      |K6S8 292155Z AUTO 20013G20KT 40SM 09/M04 A3024 RMK AO1 T00941038
TWIN BRIDGES|K7S1 292155Z AUTO 16005KT 40SM 06/M06 A3026 RMK AO1 T00561060






000
SXUS55 KMSO 292143
OSOMSO
MONTANA AWOS SUMMARY
NATIONAL WEATHER SERVICE MISSOULA MT
243 PM MST THU JAN 29 2015

Montana AWOS Reports

LAUREL      |K6S8 292135Z AUTO 19013G21KT 40SM 09/M04 A3024 RMK AO1 T00941043






000
SXUS55 KMSO 292123
OSOMSO
MONTANA AWOS SUMMARY
NATIONAL WEATHER SERVICE MISSOULA MT
223 PM MST THU JAN 29 2015

Montana AWOS Reports

ROUNDUP     |KRPX 292115Z AUTO 18011G16KT 40SM 10/M06 A3015 RMK AO1 T01001060
LAUREL      |K6S8 292115Z AUTO 19017G25KT 40SM 10/M04 A3024 RMK AO1 T01001043






000
SXUS55 KMSO 292104
OSOMSO
MONTANA AWOS SUMMARY
NATIONAL WEATHER SERVICE MISSOULA MT
203 PM MST THU JAN 29 2015

Montana AWOS Reports

LAUREL      |K6S8 292055Z AUTO 18012G20KT 40SM 10/M04 A3025 RMK AO1 T01001043
MALTA       |KM75 292055Z AUTO 10005KT 40SM 07/00 A3023 RMK AO1 T00670000
TWIN BRIDGES|K7S1 292055Z AUTO 14005KT 40SM 04/M06 A3028 RMK AO1 T00441060






000
SXUS55 KMSO 292043
OSOMSO
MONTANA AWOS SUMMARY
NATIONAL WEATHER SERVICE MISSOULA MT
143 PM MST THU JAN 29 2015

Montana AWOS Reports

LAUREL      |K6S8 292035Z AUTO 19016G22KT 40SM 09/M04 A3026 RMK AO1 T00941043






000
SXUS55 KMSO 292024
OSOMSO
MONTANA AWOS SUMMARY
NATIONAL WEATHER SERVICE MISSOULA MT
123 PM MST THU JAN 29 2015

Montana AWOS Reports

LAUREL      |K6S8 292015Z AUTO 19013G24KT 25SM 09/M04 A3027 RMK AO1 T00941043






000
SXUS55 KMSO 292003
OSOMSO
MONTANA AWOS SUMMARY
NATIONAL WEATHER SERVICE MISSOULA MT
103 PM MST THU JAN 29 2015

Montana AWOS Reports

LAUREL      |K6S8 291955Z AUTO 19013G20KT 40SM 09/M04 A3028 RMK AO1 T00941038
SCOBEY      |K9S2 291955Z AUTO 00000KT 25SM M01/M07 A3034 RMK AO1 T10101066
MALTA       |KM75 291955Z AUTO 04006KT 15SM 04/01 A3027 RMK AO1 T00390006
TWIN BRIDGES|K7S1 291955Z AUTO 16007KT 40SM 03/M07 A3031 RMK AO1 T00331066






000
SXUS55 KMSO 291943
OSOMSO
MONTANA AWOS SUMMARY
NATIONAL WEATHER SERVICE MISSOULA MT
1243 PM MST THU JAN 29 2015

Montana AWOS Reports

LAUREL      |K6S8 291935Z AUTO 20012G18KT 40SM 09/M03 A3029 RMK AO1 T00941032






000
SXUS55 KMSO 291923
OSOMSO
MONTANA AWOS SUMMARY
NATIONAL WEATHER SERVICE MISSOULA MT
1223 PM MST THU JAN 29 2015

Montana AWOS Reports

ROUNDUP     |KRPX 291915Z AUTO 20010G15KT 40SM 06/M04 A3022 RMK AO1 T00611038
LAUREL      |K6S8 291915Z AUTO 21010G14KT 40SM 09/M03 A3029 RMK AO1 T00891032






000
SXUS55 KMSO 291913
OSOMSO
MONTANA AWOS SUMMARY
NATIONAL WEATHER SERVICE MISSOULA MT
1213 PM MST THU JAN 29 2015

Montana AWOS Reports

MALTA       |KM75 291855Z AUTO 05005KT 10SM 02/00 A3031 RMK AO1 T00220000






000
SXUS55 KMSO 291904
OSOMSO
MONTANA AWOS SUMMARY
NATIONAL WEATHER SERVICE MISSOULA MT
1203 PM MST THU JAN 29 2015

Montana AWOS Reports

LAUREL      |K6S8 291855Z AUTO 00000KT 40SM 07/M04 A3031 RMK AO1 T00721038
ROUNDUP     |KRPX 291855Z AUTO 20004KT 40SM 05/M04 A3023 RMK AO1 T00501038
TWIN BRIDGES|K7S1 291855Z AUTO 18008KT 40SM 02/M06 A3033 RMK AO1 T00221055
SCOBEY      |K9S2 291855Z AUTO 17004KT 25SM M03/M08 A3037 RMK AO1 T10271077






000
SXUS55 KMSO 291843
OSOMSO
MONTANA AWOS SUMMARY
NATIONAL WEATHER SERVICE MISSOULA MT
1143 AM MST THU JAN 29 2015

Montana AWOS Reports

LAUREL      |K6S8 291835Z AUTO 00000KT 40SM 06/M04 A3031 RMK AO1 T00561038
ROUNDUP     |KRPX 291835Z AUTO 19009G14KT 40SM 04/M04 A3024 RMK AO1 T00391043






000
SXUS55 KMSO 291823
OSOMSO
MONTANA AWOS SUMMARY
NATIONAL WEATHER SERVICE MISSOULA MT
1123 AM MST THU JAN 29 2015

Montana AWOS Reports

ROUNDUP     |KRPX 291815Z AUTO 18006KT 40SM 03/M04 A3025 RMK AO1 T00331038
LAUREL      |K6S8 291815Z AUTO 00000KT 25SM 05/M04 A3032 RMK AO1 T00501043






000
SXUS55 KMSO 291813
OSOMSO
MONTANA AWOS SUMMARY
NATIONAL WEATHER SERVICE MISSOULA MT
1112 AM MST THU JAN 29 2015

Montana AWOS Reports

SCOBEY      |K9S2 291755Z AUTO 00000KT 25SM M04/M08 A3038 RMK AO1 T10381082
MALTA       |KM75 291755Z AUTO 05004KT 7SM M01/M03 A3034 RMK AO1 T10051027
TWIN BRIDGES|K7S1 291755Z AUTO 34007KT 250V070 40SM 01/M06 A3035 RMK AO1 T00061060






000
SXUS55 KMSO 291803
OSOMSO
MONTANA AWOS SUMMARY
NATIONAL WEATHER SERVICE MISSOULA MT
1103 AM MST THU JAN 29 2015

Montana AWOS Reports

LAUREL      |K6S8 291755Z AUTO 00000KT 40SM 04/M04 A3033 RMK AO1 T00391043






000
SXUS55 KMSO 291744
OSOMSO
MONTANA AWOS SUMMARY
NATIONAL WEATHER SERVICE MISSOULA MT
1043 AM MST THU JAN 29 2015

Montana AWOS Reports

LAUREL      |K6S8 291735Z AUTO 00000KT 40SM 03/M05 A3033 RMK AO1 T00331049






000
SXUS55 KMSO 291723
OSOMSO
MONTANA AWOS SUMMARY
NATIONAL WEATHER SERVICE MISSOULA MT
1023 AM MST THU JAN 29 2015

Montana AWOS Reports

ROUNDUP     |KRPX 291715Z AUTO 20004KT 40SM M01/M04 A3027 RMK AO1 T10051043
LAUREL      |K6S8 291715Z AUTO 00000KT 40SM 02/M05 A3034 RMK AO1 T00171049






000
SXUS55 KMSO 291703
OSOMSO
MONTANA AWOS SUMMARY
NATIONAL WEATHER SERVICE MISSOULA MT
1003 AM MST THU JAN 29 2015

Montana AWOS Reports

LAUREL      |K6S8 291655Z AUTO 00000KT 40SM 01/M06 A3034 RMK AO1 T00061055
SCOBEY      |K9S2 291655Z AUTO 00000KT 25SM M05/M09 A3040 RMK AO1 T10491088
TWIN BRIDGES|K7S1 291655Z AUTO 16006KT 40SM M02/M07 A3037 RMK AO1 T10161066






000
SXUS55 KMSO 291643
OSOMSO
MONTANA AWOS SUMMARY
NATIONAL WEATHER SERVICE MISSOULA MT
943 AM MST THU JAN 29 2015

Montana AWOS Reports

ROUNDUP     |KRPX 291635Z AUTO 20004KT 40SM M02/M06 A3028 RMK AO1 T10211055
LAUREL      |K6S8 291635Z AUTO 00000KT 40SM M01/M06 A3034 RMK AO1 T10051060






000
SXUS55 KMSO 291624
OSOMSO
MONTANA AWOS SUMMARY
NATIONAL WEATHER SERVICE MISSOULA MT
923 AM MST THU JAN 29 2015

Montana AWOS Reports

ROUNDUP     |KRPX 291615Z AUTO 00000KT 40SM M03/M07 A3028 RMK AO1 T10321066
LAUREL      |K6S8 291615Z AUTO 00000KT 40SM M01/M06 A3034 RMK AO1 T10101060






000
SXUS55 KMSO 291603
OSOMSO
MONTANA AWOS SUMMARY
NATIONAL WEATHER SERVICE MISSOULA MT
903 AM MST THU JAN 29 2015

Montana AWOS Reports

LAUREL      |K6S8 291555Z AUTO 00000KT 40SM M02/M07 A3034 RMK AO1 T10161071
SCOBEY      |K9S2 291555Z AUTO 00000KT 15SM M07/M09 A3039 RMK AO1 T10661093
MALTA       |KM75 291555Z AUTO 00000KT 4SM M05/M07 A3036 RMK AO1 T10491071
TWIN BRIDGES|K7S1 291555Z AUTO 00000KT 40SM M05/M09 A3037 RMK AO1 T10491093






000
SXUS55 KMSO 291543
OSOMSO
MONTANA AWOS SUMMARY
NATIONAL WEATHER SERVICE MISSOULA MT
843 AM MST THU JAN 29 2015

Montana AWOS Reports

LAUREL      |K6S8 291535Z AUTO 00000KT 40SM M03/M08 A3034 RMK AO1 T10271082






000
SXUS55 KMSO 291523
OSOMSO
MONTANA AWOS SUMMARY
NATIONAL WEATHER SERVICE MISSOULA MT
823 AM MST THU JAN 29 2015

Montana AWOS Reports

LAUREL      |K6S8 291515Z AUTO 00000KT 40SM M04/M09 A3034 RMK AO1 T10381088






000
SXUS55 KMSO 291503
OSOMSO
MONTANA AWOS SUMMARY
NATIONAL WEATHER SERVICE MISSOULA MT
803 AM MST THU JAN 29 2015

Montana AWOS Reports

ROUNDUP     |KRPX 291455Z AUTO 00000KT 40SM M05/M08 A3028 RMK AO1 T10491082
SCOBEY      |K9S2 291455Z AUTO 00000KT 15SM M08/M11 A3039 RMK AO1 T10771105
LAUREL      |K6S8 291455Z AUTO 00000KT 25SM M05/M11 A3034 RMK AO1 T10491105
MALTA       |KM75 291455Z AUTO 00000KT 4SM M06/M09 A3037 RMK AO1 T10601088
TWIN BRIDGES|K7S1 291455Z AUTO 00000KT 40SM M07/M12 A3036 RMK AO1 T10711116






000
SXUS55 KMSO 291443
OSOMSO
MONTANA AWOS SUMMARY
NATIONAL WEATHER SERVICE MISSOULA MT
743 AM MST THU JAN 29 2015

Montana AWOS Reports

ROUNDUP     |KRPX 291435Z AUTO 00000KT 40SM M05/M08 A3028 RMK AO1 T10491082
LAUREL      |K6S8 291435Z AUTO 00000KT 25SM M05/M11 A3034 RMK AO1 T10491105






000
SXUS55 KMSO 291423
OSOMSO
MONTANA AWOS SUMMARY
NATIONAL WEATHER SERVICE MISSOULA MT
723 AM MST THU JAN 29 2015

Montana AWOS Reports

ROUNDUP     |KRPX 291415Z AUTO 00000KT 40SM M04/M08 A3028 RMK AO1 T10431077
LAUREL      |K6S8 291415Z AUTO 00000KT 25SM M04/M11 A3034 RMK AO1 T10431105






000
SXUS55 KMSO 291413
OSOMSO
MONTANA AWOS SUMMARY
NATIONAL WEATHER SERVICE MISSOULA MT
713 AM MST THU JAN 29 2015

Montana AWOS Reports

MALTA       |KM75 291355Z AUTO 00000KT 1/4SM M06/M08 A3037 RMK AO1 T10551077
TWIN BRIDGES|K7S1 291355Z AUTO 09005KT 40SM M05/M09 A3035 RMK AO1 T10491093






000
SXUS55 KMSO 291403
OSOMSO
MONTANA AWOS SUMMARY
NATIONAL WEATHER SERVICE MISSOULA MT
703 AM MST THU JAN 29 2015

Montana AWOS Reports

LAUREL      |K6S8 291355Z AUTO 00000KT 40SM M04/M11 A3034 RMK AO1 T10431105
ROUNDUP     |KRPX 291355Z AUTO 00000KT 40SM M04/M08 A3028 RMK AO1 T10431077
SCOBEY      |K9S2 291355Z AUTO 00000KT 10SM M08/M12 A3038 RMK AO1 T10821116






000
SXUS55 KMSO 291344
OSOMSO
MONTANA AWOS SUMMARY
NATIONAL WEATHER SERVICE MISSOULA MT
643 AM MST THU JAN 29 2015

Montana AWOS Reports

ROUNDUP     |KRPX 291335Z AUTO 21004KT 40SM M04/M08 A3027 RMK AO1 T10431077
LAUREL      |K6S8 291335Z AUTO 00000KT 40SM M04/M11 A3034 RMK AO1 T10381105






000
SXUS55 KMSO 291323
OSOMSO
MONTANA AWOS SUMMARY
NATIONAL WEATHER SERVICE MISSOULA MT
623 AM MST THU JAN 29 2015

Montana AWOS Reports

ROUNDUP     |KRPX 291315Z AUTO 21005KT 40SM M05/M08 A3028 RMK AO1 T10491077
LAUREL      |K6S8 291315Z AUTO 00000KT 40SM M03/M09 A3034 RMK AO1 T10271093






000
SXUS55 KMSO 291303
OSOMSO
MONTANA AWOS SUMMARY
NATIONAL WEATHER SERVICE MISSOULA MT
603 AM MST THU JAN 29 2015

Montana AWOS Reports

ROUNDUP     |KRPX 291255Z AUTO 00000KT 40SM M06/M09 A3028 RMK AO1 T10551088
LAUREL      |K6S8 291255Z AUTO 00000KT 40SM M03/M10 A3035 RMK AO1 T10321099
SCOBEY      |K9S2 291255Z AUTO 00000KT 15SM M07/M11 A3037 RMK AO1 T10711105
MALTA       |KM75 291255Z AUTO 00000KT 1/4SM M05/M07 A3036 RMK AO1 T10491071
TWIN BRIDGES|K7S1 291255Z AUTO 00000KT 40SM M06/M11 A3035 RMK AO1 T10551105






000
SXUS55 KMSO 291243
OSOMSO
MONTANA AWOS SUMMARY
NATIONAL WEATHER SERVICE MISSOULA MT
543 AM MST THU JAN 29 2015

Montana AWOS Reports

MALTA       |KM75 291155Z AUTO 00000KT 1/4SM M04/M06 A3037 RMK AO1 T10381060
ROUNDUP     |KRPX 291235Z AUTO 00000KT 40SM M05/M08 A3028 RMK AO1 T10491082
LAUREL      |K6S8 291235Z AUTO 00000KT 40SM M04/M10 A3035 RMK AO1 T10381099






000
SXUS55 KMSO 291223
OSOMSO
MONTANA AWOS SUMMARY
NATIONAL WEATHER SERVICE MISSOULA MT
523 AM MST THU JAN 29 2015

Montana AWOS Reports

ROUNDUP     |KRPX 291215Z AUTO 00000KT 40SM M06/M09 A3028 RMK AO1 T10551088
SCOBEY      |K9S2 291155Z AUTO 31004KT 25SM M05/M08 A3036 RMK AO1 T10491082
LAUREL      |K6S8 291215Z AUTO 00000KT 40SM M04/M11 A3035 RMK AO1 T10431105






000
SXUS55 KMSO 291203
OSOMSO
MONTANA AWOS SUMMARY
NATIONAL WEATHER SERVICE MISSOULA MT
503 AM MST THU JAN 29 2015

Montana AWOS Reports

LAUREL      |K6S8 291155Z AUTO 00000KT 40SM M04/M10 A3034 RMK AO1 T10381099
TWIN BRIDGES|K7S1 291155Z AUTO 11004KT 40SM M04/M08 A3035 RMK AO1 T10381082






000
SXUS55 KMSO 291143
OSOMSO
MONTANA AWOS SUMMARY
NATIONAL WEATHER SERVICE MISSOULA MT
443 AM MST THU JAN 29 2015

Montana AWOS Reports

ROUNDUP     |KRPX 291135Z AUTO 00000KT 40SM M05/M08 A3029 RMK AO1 T10491082
LAUREL      |K6S8 291135Z AUTO 00000KT 25SM M04/M09 A3034 RMK AO1 T10381088






000
SXUS55 KMSO 291133
OSOMSO
MONTANA AWOS SUMMARY
NATIONAL WEATHER SERVICE MISSOULA MT
433 AM MST THU JAN 29 2015

Montana AWOS Reports

SCOBEY      |K9S2 291055Z AUTO 31008KT 25SM M04/M08 A3036 RMK AO1 T10431077






000
SXUS55 KMSO 291123
OSOMSO
MONTANA AWOS SUMMARY
NATIONAL WEATHER SERVICE MISSOULA MT
423 AM MST THU JAN 29 2015

Montana AWOS Reports

ROUNDUP     |KRPX 291115Z AUTO 00000KT 40SM M04/M08 A3029 RMK AO1 T10431077
LAUREL      |K6S8 291115Z AUTO 00000KT 40SM M02/M08 A3034 RMK AO1 T10211077






000
SXUS55 KMSO 291103
OSOMSO
MONTANA AWOS SUMMARY
NATIONAL WEATHER SERVICE MISSOULA MT
403 AM MST THU JAN 29 2015

Montana AWOS Reports

LAUREL      |K6S8 291055Z AUTO 00000KT 25SM M04/M08 A3034 RMK AO1 T10381082
TWIN BRIDGES|K7S1 291055Z AUTO 11004KT 40SM M06/M11 A3035 RMK AO1 T10601105






000
SXUS55 KMSO 291043
OSOMSO
MONTANA AWOS SUMMARY
NATIONAL WEATHER SERVICE MISSOULA MT
343 AM MST THU JAN 29 2015

Montana AWOS Reports

LAUREL      |K6S8 291035Z AUTO 00000KT 40SM M03/M11 A3035 RMK AO1 T10321105






000
SXUS55 KMSO 291023
OSOMSO
MONTANA AWOS SUMMARY
NATIONAL WEATHER SERVICE MISSOULA MT
323 AM MST THU JAN 29 2015

Montana AWOS Reports

ROUNDUP     |KRPX 291015Z AUTO 00000KT 40SM M04/M07 A3029 RMK AO1 T10381071
LAUREL      |K6S8 291015Z AUTO 00000KT 40SM M01/M08 A3035 RMK AO1 T10101082






000
SXUS55 KMSO 291013
OSOMSO
MONTANA AWOS SUMMARY
NATIONAL WEATHER SERVICE MISSOULA MT
313 AM MST THU JAN 29 2015

Montana AWOS Reports

TWIN BRIDGES|K7S1 290955Z AUTO 00000KT 40SM M04/M09 A3035 RMK AO1 T10431088






000
SXUS55 KMSO 291003
OSOMSO
MONTANA AWOS SUMMARY
NATIONAL WEATHER SERVICE MISSOULA MT
303 AM MST THU JAN 29 2015

Montana AWOS Reports

LAUREL      |K6S8 290955Z AUTO 00000KT 40SM 00/M07 A3035 RMK AO1 T00001071






000
SXUS55 KMSO 290953
OSOMSO
MONTANA AWOS SUMMARY
NATIONAL WEATHER SERVICE MISSOULA MT
252 AM MST THU JAN 29 2015

Montana AWOS Reports

MALTA       |KM75 290855Z AUTO 00000KT 5SM M04/M07 A3037 RMK AO1 T10431071






000
SXUS55 KMSO 290943
OSOMSO
MONTANA AWOS SUMMARY
NATIONAL WEATHER SERVICE MISSOULA MT
243 AM MST THU JAN 29 2015

Montana AWOS Reports

LAUREL      |K6S8 290935Z AUTO 00000KT 40SM M02/M08 A3035 RMK AO1 T10161082






000
SXUS55 KMSO 290924
OSOMSO
MONTANA AWOS SUMMARY
NATIONAL WEATHER SERVICE MISSOULA MT
223 AM MST THU JAN 29 2015

Montana AWOS Reports

ROUNDUP     |KRPX 290915Z AUTO 00000KT 40SM M03/M07 A3029 RMK AO1 T10321071
LAUREL      |K6S8 290915Z AUTO 00000KT 40SM M03/M09 A3035 RMK AO1 T10271088






000
SXUS55 KMSO 290903
OSOMSO
MONTANA AWOS SUMMARY
NATIONAL WEATHER SERVICE MISSOULA MT
203 AM MST THU JAN 29 2015

Montana AWOS Reports

LAUREL      |K6S8 290855Z AUTO 00000KT 40SM 01/M07 A3035 RMK AO1 T00061071
SCOBEY      |K9S2 290855Z AUTO 32012G17KT 25SM M04/M07 A3035 RMK AO1 T10381071
MALTA       |KM75 290755Z AUTO 00000KT 4SM M04/M07 A3036 RMK AO1 T10431066
TWIN BRIDGES|K7S1 290855Z AUTO 00000KT 40SM M06/M10 A3034 RMK AO1 T10551099






000
SXUS55 KMSO 290843
OSOMSO
MONTANA AWOS SUMMARY
NATIONAL WEATHER SERVICE MISSOULA MT
143 AM MST THU JAN 29 2015

Montana AWOS Reports

ROUNDUP     |KRPX 290835Z AUTO 00000KT 40SM M02/M06 A3029 RMK AO1 T10211060
LAUREL      |K6S8 290835Z AUTO 00000KT 40SM 01/M07 A3035 RMK AO1 T00061071






000
SXUS55 KMSO 290824
OSOMSO
MONTANA AWOS SUMMARY
NATIONAL WEATHER SERVICE MISSOULA MT
123 AM MST THU JAN 29 2015

Montana AWOS Reports

ROUNDUP     |KRPX 290815Z AUTO 00000KT 40SM M02/M06 A3029 RMK AO1 T10211055
LAUREL      |K6S8 290815Z AUTO 00000KT 40SM M01/M08 A3035 RMK AO1 T10051077






000
SXUS55 KMSO 290803
OSOMSO
MONTANA AWOS SUMMARY
NATIONAL WEATHER SERVICE MISSOULA MT
103 AM MST THU JAN 29 2015

Montana AWOS Reports

LAUREL      |K6S8 290755Z AUTO 00000KT 40SM 01/M08 A3036 RMK AO1 T00061077
ROUNDUP     |KRPX 290755Z AUTO 00000KT 40SM M02/M06 A3029 RMK AO1 T10211060
SCOBEY      |K9S2 290755Z AUTO 31008KT 25SM M04/M07 A3033 RMK AO1 T10381071
TWIN BRIDGES|K7S1 290755Z AUTO 09004KT 40SM M03/M08 A3034 RMK AO1 T10271077






000
SXUS55 KMSO 290744
OSOMSO
MONTANA AWOS SUMMARY
NATIONAL WEATHER SERVICE MISSOULA MT
1243 AM MST THU JAN 29 2015

Montana AWOS Reports

LAUREL      |K6S8 290735Z AUTO 00000KT 40SM 01/M08 A3036 RMK AO1 T00061082
ROUNDUP     |KRPX 290735Z AUTO 00000KT 40SM M02/M06 A3029 RMK AO1 T10211060






000
SXUS55 KMSO 290723
OSOMSO
MONTANA AWOS SUMMARY
NATIONAL WEATHER SERVICE MISSOULA MT
1223 AM MST THU JAN 29 2015

Montana AWOS Reports

LAUREL      |K6S8 290715Z AUTO 00000KT 40SM 01/M08 A3036 RMK AO1 T00111077
ROUNDUP     |KRPX 290715Z AUTO 00000KT 40SM M01/M06 A3029 RMK AO1 T10101055






000
SXUS55 KMSO 290713
OSOMSO
MONTANA AWOS SUMMARY
NATIONAL WEATHER SERVICE MISSOULA MT
1213 AM MST THU JAN 29 2015

Montana AWOS Reports

MALTA       |KM75 290655Z AUTO 00000KT 5SM M04/M07 A3036 RMK AO1 T10381066






000
SXUS55 KMSO 290703
OSOMSO
MONTANA AWOS SUMMARY
NATIONAL WEATHER SERVICE MISSOULA MT
1203 AM MST THU JAN 29 2015

Montana AWOS Reports

LAUREL      |K6S8 290655Z AUTO 00000KT 40SM 01/M08 A3036 RMK AO1 T00111077
ROUNDUP     |KRPX 290655Z AUTO 00000KT 40SM M02/M06 A3029 RMK AO1 T10161055
SCOBEY      |K9S2 290655Z AUTO 32006KT 25SM M02/M06 A3032 RMK AO1 T10211060






000
SXUS55 KMSO 290643
OSOMSO
MONTANA AWOS SUMMARY
NATIONAL WEATHER SERVICE MISSOULA MT
1143 PM MST WED JAN 28 2015

Montana AWOS Reports

LAUREL      |K6S8 290635Z AUTO 00000KT 40SM 02/M07 A3036 RMK AO1 T00171071
ROUNDUP     |KRPX 290635Z AUTO 21004KT 40SM M01/M05 A3029 RMK AO1 T10051049






000
SXUS55 KMSO 290623
OSOMSO
MONTANA AWOS SUMMARY
NATIONAL WEATHER SERVICE MISSOULA MT
1123 PM MST WED JAN 28 2015

Montana AWOS Reports

LAUREL      |K6S8 290615Z AUTO 00000KT 40SM 02/M07 A3036 RMK AO1 T00171071
ROUNDUP     |KRPX 290615Z AUTO 00000KT 40SM M01/M05 A3029 RMK AO1 T10101049






000
SXUS55 KMSO 290613
OSOMSO
MONTANA AWOS SUMMARY
NATIONAL WEATHER SERVICE MISSOULA MT
1113 PM MST WED JAN 28 2015

Montana AWOS Reports

SCOBEY      |K9S2 290555Z AUTO 33012G16KT 25SM M02/M06 A3030 RMK AO1 T10211060
TWIN BRIDGES|K7S1 290555Z AUTO 00000KT 40SM 00/M07 A3033 RMK AO1 T00001071
MALTA       |KM75 290555Z AUTO 00000KT 5SM M03/M06 A3035 RMK AO1 T10271055






000
SXUS55 KMSO 290604
OSOMSO
MONTANA AWOS SUMMARY
NATIONAL WEATHER SERVICE MISSOULA MT
1103 PM MST WED JAN 28 2015

Montana AWOS Reports

LAUREL      |K6S8 290555Z AUTO 00000KT 40SM 02/M07 A3036 RMK AO1 T00171071






000
SXUS55 KMSO 290543
OSOMSO
MONTANA AWOS SUMMARY
NATIONAL WEATHER SERVICE MISSOULA MT
1043 PM MST WED JAN 28 2015

Montana AWOS Reports

LAUREL      |K6S8 290535Z AUTO 00000KT 40SM 01/M07 A3035 RMK AO1 T00111071






000
SXUS55 KMSO 290523
OSOMSO
MONTANA AWOS SUMMARY
NATIONAL WEATHER SERVICE MISSOULA MT
1022 PM MST WED JAN 28 2015

Montana AWOS Reports

MALTA       |KM75 290455Z AUTO 00000KT 5SM M02/M05 A3033 RMK AO1 T10211049
ROUNDUP     |KRPX 290515Z AUTO 00000KT 40SM 00/M04 A3028 RMK AO1 T00001043
LAUREL      |K6S8 290515Z AUTO 00000KT 40SM 03/M06 A3035 RMK AO1 T00281060






000
SXUS55 KMSO 290513
OSOMSO
MONTANA AWOS SUMMARY
NATIONAL WEATHER SERVICE MISSOULA MT
1013 PM MST WED JAN 28 2015

Montana AWOS Reports

SCOBEY      |K9S2 290455Z AUTO 31012G18KT 25SM M02/M06 A3028 RMK AO1 T10211060






000
SXUS55 KMSO 290003
OSOMSO
MONTANA AWOS SUMMARY
NATIONAL WEATHER SERVICE MISSOULA MT
503 PM MST WED JAN 28 2015

Montana AWOS Reports

LAUREL      |K6S8 282355Z AUTO 36009G14KT 40SM 08/M03 A3023 RMK AO1 T00781027
SCOBEY      |K9S2 282355Z AUTO 30013G18KT 25SM 01/M03 A3018 RMK AO1 T00061027
MALTA       |KM75 282355Z AUTO 26006KT 40SM 03/M02 A3025 RMK AO1 T00281016
TWIN BRIDGES|K7S1 282355Z AUTO 36006KT 40SM 09/M06 A3022 RMK AO1 T00891055






000
SXUS55 KMSO 282344
OSOMSO
MONTANA AWOS SUMMARY
NATIONAL WEATHER SERVICE MISSOULA MT
443 PM MST WED JAN 28 2015

Montana AWOS Reports

LAUREL      |K6S8 282335Z AUTO 01009G14KT 40SM 08/M02 A3022 RMK AO1 T00831021






000
SXUS55 KMSO 282324
OSOMSO
MONTANA AWOS SUMMARY
NATIONAL WEATHER SERVICE MISSOULA MT
423 PM MST WED JAN 28 2015

Montana AWOS Reports

LAUREL      |K6S8 282315Z AUTO 01008KT 40SM 09/M02 A3021 RMK AO1 T00941021
ROUNDUP     |KRPX 282315Z AUTO 34007KT 40SM 06/M02 A3016 RMK AO1 T00611021






000
SXUS55 KMSO 282303
OSOMSO
MONTANA AWOS SUMMARY
NATIONAL WEATHER SERVICE MISSOULA MT
403 PM MST WED JAN 28 2015

Montana AWOS Reports

LAUREL      |K6S8 282255Z AUTO 01007KT 40SM 10/M02 A3019 RMK AO1 T01001021
SCOBEY      |K9S2 282255Z AUTO 30013G21KT 25SM 00/M03 A3015 RMK AO1 T00001032
TWIN BRIDGES|K7S1 282255Z AUTO 26004KT 40SM 10/M08 A3021 RMK AO1 T01001082
MALTA       |KM75 282255Z AUTO 27012G16KT 40SM 04/M02 A3023 RMK AO1 T00441016






000
SXUS55 KMSO 282243
OSOMSO
MONTANA AWOS SUMMARY
NATIONAL WEATHER SERVICE MISSOULA MT
343 PM MST WED JAN 28 2015

Montana AWOS Reports

LAUREL      |K6S8 282235Z AUTO 36009G13KT 40SM 11/M03 A3018 RMK AO1 T01061032
ROUNDUP     |KRPX 282235Z AUTO 35015G21KT 40SM 07/M02 A3013 RMK AO1 T00721021






000
SXUS55 KMSO 282223
OSOMSO
MONTANA AWOS SUMMARY
NATIONAL WEATHER SERVICE MISSOULA MT
323 PM MST WED JAN 28 2015

Montana AWOS Reports

LAUREL      |K6S8 282215Z AUTO 01005KT 40SM 11/M04 A3017 RMK AO1 T01111038






000
SXUS55 KMSO 282213
OSOMSO
MONTANA AWOS SUMMARY
NATIONAL WEATHER SERVICE MISSOULA MT
313 PM MST WED JAN 28 2015

Montana AWOS Reports

MALTA       |KM75 282155Z AUTO 27013G19KT 40SM 04/M02 A3020 RMK AO1 T00391016






000
SXUS55 KMSO 282203
OSOMSO
MONTANA AWOS SUMMARY
NATIONAL WEATHER SERVICE MISSOULA MT
303 PM MST WED JAN 28 2015

Montana AWOS Reports

TWIN BRIDGES|K7S1 282155Z AUTO 25009KT 40SM 10/M08 A3020 RMK AO1 T01001077






000
SXUS55 KMSO 282143
OSOMSO
MONTANA AWOS SUMMARY
NATIONAL WEATHER SERVICE MISSOULA MT
242 PM MST WED JAN 28 2015

Montana AWOS Reports

LAUREL      |K6S8 282135Z AUTO 33011G17KT 40SM 12/M07 A3016 RMK AO1 T01171071
ROUNDUP     |KRPX 282135Z AUTO 34013G22KT 40SM 08/M02 A3010 RMK AO1 T00831021






000
SXUS55 KMSO 282123
OSOMSO
MONTANA AWOS SUMMARY
NATIONAL WEATHER SERVICE MISSOULA MT
223 PM MST WED JAN 28 2015

Montana AWOS Reports

LAUREL      |K6S8 282115Z AUTO 32013G19KT 40SM 12/M07 A3015 RMK AO1 T01171071
ROUNDUP     |KRPX 282115Z AUTO 34017G23KT 40SM 09/M02 A3009 RMK AO1 T00941021






    US Dept of Commerce
    National Oceanic and Atmospheric Administration
    National Weather Service
    1325 East West Highway
    Silver Spring, MD 20910
    Page Author: NWS Internet Services Team
Disclaimer
Information Quality
Credits
Glossary
Privacy Policy
Freedom of Information Act (FOIA)
About Us
Career Opportunities